Wetterdaten: Freitag, 10.04.2020
Datum Zeit Temp. Aussen Temp. o. S. Temp +5cm Feuchte Auss Luftdruck Regen Sonnenschein Regendauer Solar Windben Empfang
10.04.2020 00:00 13,4 C 12,2 C 11,1 C 73 % 1026,2 hPa 0,0 l/m 0 min 0 min 0 W/m 3,2 km/h (1 Bft) 95,74 %
10.04.2020 00:02 13,4 C 12,2 C 11,1 C 73 % 1026,3 hPa 0,0 l/m 0 min 0 min 0 W/m 0,0 km/h (0 Bft) 97,30 %
10.04.2020 00:04 13,3 C 12,2 C 11,1 C 73 % 1026,3 hPa 0,0 l/m 0 min 0 min 0 W/m 0,0 km/h (0 Bft) 95,65 %
10.04.2020 00:08 13,3 C 11,7 C 11,1 C 73 % 1026,3 hPa 0,0 l/m 0 min 0 min 0 W/m 0,0 km/h (0 Bft) 97,87 %
10.04.2020 00:10 13,3 C 11,7 C 10,6 C 73 % 1026,3 hPa 0,0 l/m 0 min 0 min 0 W/m 0,0 km/h (0 Bft) 97,87 %
10.04.2020 00:12 13,3 C 11,7 C 10,6 C 73 % 1026,3 hPa 0,0 l/m 0 min 0 min 0 W/m 0,0 km/h (0 Bft) 97,87 %
10.04.2020 00:14 13,3 C 11,7 C 10,6 C 74 % 1026,3 hPa 0,0 l/m 0 min 0 min 0 W/m 0,0 km/h (0 Bft) 97,87 %
10.04.2020 00:16 13,2 C 11,7 C 10,6 C 74 % 1026,3 hPa 0,0 l/m 0 min 0 min 0 W/m 0,0 km/h (0 Bft) 100,00 %
10.04.2020 00:18 13,2 C 11,7 C 10,6 C 74 % 1026,3 hPa 0,0 l/m 0 min 0 min 0 W/m 0,0 km/h (0 Bft) 100,00 %
10.04.2020 00:20 13,2 C 11,7 C 10,6 C 74 % 1026,4 hPa 0,0 l/m 0 min 0 min 0 W/m 0,0 km/h (0 Bft) 97,87 %
10.04.2020 00:22 13,1 C 11,7 C 10,6 C 74 % 1026,4 hPa 0,0 l/m 0 min 0 min 0 W/m 0,0 km/h (0 Bft) 100,00 %
10.04.2020 00:24 13,1 C 11,7 C 10,6 C 74 % 1026,3 hPa 0,0 l/m 0 min 0 min 0 W/m 0,0 km/h (0 Bft) 100,00 %
10.04.2020 00:26 13,1 C 11,7 C 10,6 C 74 % 1026,4 hPa 0,0 l/m 0 min 0 min 0 W/m 0,0 km/h (0 Bft) 100,00 %
10.04.2020 00:28 13,1 C 11,7 C 10,6 C 74 % 1026,4 hPa 0,0 l/m 0 min 0 min 0 W/m 0,0 km/h (0 Bft) 100,00 %
10.04.2020 00:30 13,1 C 11,1 C 10,0 C 73 % 1026,4 hPa 0,0 l/m 0 min 0 min 0 W/m 0,0 km/h (0 Bft) 100,00 %
10.04.2020 00:32 13,0 C 11,1 C 10,0 C 73 % 1026,4 hPa 0,0 l/m 0 min 0 min 0 W/m 0,0 km/h (0 Bft) 97,87 %
10.04.2020 00:34 13,0 C 11,1 C 10,0 C 73 % 1026,4 hPa 0,0 l/m 0 min 0 min 0 W/m 3,2 km/h (1 Bft) 100,00 %
10.04.2020 00:36 12,9 C 11,1 C 10,0 C 73 % 1026,4 hPa 0,0 l/m 0 min 0 min 0 W/m 0,0 km/h (0 Bft) 100,00 %
10.04.2020 00:38 12,9 C 11,1 C 10,0 C 73 % 1026,4 hPa 0,0 l/m 0 min 0 min 0 W/m 0,0 km/h (0 Bft) 97,83 %
10.04.2020 00:40 12,9 C 11,1 C 10,0 C 74 % 1026,4 hPa 0,0 l/m 0 min 0 min 0 W/m 6,4 km/h (2 Bft) 100,00 %
10.04.2020 00:42 12,8 C 11,1 C 10,0 C 74 % 1026,4 hPa 0,0 l/m 0 min 0 min 0 W/m 3,2 km/h (1 Bft) 100,00 %
10.04.2020 00:44 12,8 C 11,1 C 10,0 C 74 % 1026,3 hPa 0,0 l/m 0 min 0 min 0 W/m 6,4 km/h (2 Bft) 100,00 %
10.04.2020 00:46 12,8 C 11,1 C 10,0 C 74 % 1026,4 hPa 0,0 l/m 0 min 0 min 0 W/m 0,0 km/h (0 Bft) 97,87 %
10.04.2020 00:48 12,7 C 11,1 C 10,0 C 74 % 1026,4 hPa 0,0 l/m 0 min 0 min 0 W/m 0,0 km/h (0 Bft) 100,00 %
10.04.2020 00:50 12,7 C 11,1 C 10,0 C 74 % 1026,4 hPa 0,0 l/m 0 min 0 min 0 W/m 3,2 km/h (1 Bft) 100,00 %
10.04.2020 00:52 12,7 C 11,1 C 10,0 C 74 % 1026,3 hPa 0,0 l/m 0 min 0 min 0 W/m 6,4 km/h (2 Bft) 97,87 %
10.04.2020 00:54 12,7 C 11,1 C 10,0 C 74 % 1026,4 hPa 0,0 l/m 0 min 0 min 0 W/m 3,2 km/h (1 Bft) 100,00 %
10.04.2020 00:56 12,6 C 11,7 C 10,0 C 74 % 1026,4 hPa 0,0 l/m 0 min 0 min 0 W/m 3,2 km/h (1 Bft) 100,00 %
10.04.2020 00:58 12,6 C 11,7 C 10,6 C 75 % 1026,4 hPa 0,0 l/m 0 min 0 min 0 W/m 0,0 km/h (0 Bft) 52,38 %
10.04.2020 01:00 12,6 C 11,1 C 10,6 C 75 % 1026,4 hPa 0,0 l/m 0 min 0 min 0 W/m 6,4 km/h (2 Bft) 97,73 %
10.04.2020 01:02 12,5 C 11,1 C 10,6 C 75 % 1026,3 hPa 0,0 l/m 0 min 0 min 0 W/m 3,2 km/h (1 Bft) 97,83 %
10.04.2020 01:04 12,5 C 11,1 C 10,0 C 75 % 1026,3 hPa 0,0 l/m 0 min 0 min 0 W/m 0,0 km/h (0 Bft) 100,00 %
10.04.2020 01:06 12,5 C 11,1 C 10,0 C 75 % 1026,3 hPa 0,0 l/m 0 min 0 min 0 W/m 0,0 km/h (0 Bft) 100,00 %
10.04.2020 01:08 12,4 C 11,1 C 10,0 C 75 % 1026,3 hPa 0,0 l/m 0 min 0 min 0 W/m 0,0 km/h (0 Bft) 97,87 %
10.04.2020 01:10 12,4 C 11,1 C 10,0 C 75 % 1026,3 hPa 0,0 l/m 0 min 0 min 0 W/m 0,0 km/h (0 Bft) 100,00 %
10.04.2020 01:12 12,4 C 11,1 C 10,0 C 75 % 1026,4 hPa 0,0 l/m 0 min 0 min 0 W/m 0,0 km/h (0 Bft) 100,00 %
10.04.2020 01:14 12,4 C 11,1 C 10,0 C 75 % 1026,4 hPa 0,0 l/m 0 min 0 min 0 W/m 0,0 km/h (0 Bft) 97,83 %
10.04.2020 01:16 12,4 C 11,7 C 10,6 C 75 % 1026,4 hPa 0,0 l/m 0 min 0 min 0 W/m 6,4 km/h (2 Bft) 100,00 %
10.04.2020 01:18 12,4 C 11,7 C 10,6 C 75 % 1026,3 hPa 0,0 l/m 0 min 0 min 0 W/m 3,2 km/h (1 Bft) 100,00 %
10.04.2020 01:20 12,3 C 11,7 C 10,6 C 75 % 1026,4 hPa 0,0 l/m 0 min 0 min 0 W/m 3,2 km/h (1 Bft) 100,00 %
10.04.2020 01:22 12,4 C 11,1 C 10,6 C 75 % 1026,4 hPa 0,0 l/m 0 min 0 min 0 W/m 6,4 km/h (2 Bft) 100,00 %
10.04.2020 01:24 12,3 C 11,1 C 10,6 C 75 % 1026,5 hPa 0,0 l/m 0 min 0 min 0 W/m 0,0 km/h (0 Bft) 100,00 %
10.04.2020 01:26 12,3 C 11,7 C 10,6 C 76 % 1026,5 hPa 0,0 l/m 0 min 0 min 0 W/m 12,9 km/h (3 Bft) 100,00 %
10.04.2020 01:28 12,3 C 11,7 C 10,6 C 76 % 1026,5 hPa 0,0 l/m 0 min 0 min 0 W/m 3,2 km/h (1 Bft) 100,00 %
10.04.2020 01:30 12,3 C 11,7 C 10,6 C 75 % 1026,4 hPa 0,0 l/m 0 min 0 min 0 W/m 6,4 km/h (2 Bft) 100,00 %
10.04.2020 01:32 12,3 C 11,1 C 10,6 C 75 % 1026,4 hPa 0,0 l/m 0 min 0 min 0 W/m 3,2 km/h (1 Bft) 100,00 %
10.04.2020 01:34 12,3 C 11,1 C 10,6 C 75 % 1026,4 hPa 0,0 l/m 0 min 0 min 0 W/m 0,0 km/h (0 Bft) 100,00 %
10.04.2020 01:36 12,3 C 11,1 C 10,0 C 75 % 1026,4 hPa 0,0 l/m 0 min 0 min 0 W/m 0,0 km/h (0 Bft) 95,65 %
10.04.2020 01:38 12,3 C 11,1 C 10,0 C 75 % 1026,3 hPa 0,0 l/m 0 min 0 min 0 W/m 3,2 km/h (1 Bft) 97,87 %
10.04.2020 01:40 12,3 C 11,1 C 10,6 C 76 % 1026,3 hPa 0,0 l/m 0 min 0 min 0 W/m 3,2 km/h (1 Bft) 100,00 %
10.04.2020 01:42 12,3 C 11,1 C 10,6 C 76 % 1026,4 hPa 0,0 l/m 0 min 0 min 0 W/m 3,2 km/h (1 Bft) 100,00 %
10.04.2020 01:44 12,3 C 11,1 C 10,6 C 76 % 1026,4 hPa 0,0 l/m 0 min 0 min 0 W/m 6,4 km/h (2 Bft) 95,74 %
10.04.2020 01:46 12,3 C 11,1 C 10,6 C 76 % 1026,5 hPa 0,0 l/m 0 min 0 min 0 W/m 0,0 km/h (0 Bft) 97,87 %
10.04.2020 01:48 12,3 C 11,1 C 10,6 C 76 % 1026,5 hPa 0,0 l/m 0 min 0 min 0 W/m 6,4 km/h (2 Bft) 95,65 %
10.04.2020 01:50 12,3 C 11,1 C 10,6 C 76 % 1026,4 hPa 0,0 l/m 0 min 0 min 0 W/m 6,4 km/h (2 Bft) 97,87 %
10.04.2020 01:52 12,3 C 11,1 C 10,6 C 76 % 1026,4 hPa 0,0 l/m 0 min 0 min 0 W/m 6,4 km/h (2 Bft) 100,00 %
10.04.2020 01:54 12,3 C 11,1 C 10,6 C 76 % 1026,3 hPa 0,0 l/m 0 min 0 min 0 W/m 3,2 km/h (1 Bft) 97,87 %
10.04.2020 01:56 12,3 C 11,1 C 10,6 C 76 % 1026,4 hPa 0,0 l/m 0 min 0 min 0 W/m 0,0 km/h (0 Bft) 97,87 %
10.04.2020 01:58 12,3 C 11,7 C 10,6 C 76 % 1026,3 hPa 0,0 l/m 0 min 0 min 0 W/m 6,4 km/h (2 Bft) 97,87 %
10.04.2020 02:00 12,3 C 11,7 C 10,6 C 76 % 1026,3 hPa 0,0 l/m 0 min 0 min 0 W/m 3,2 km/h (1 Bft) 97,83 %
10.04.2020 02:02 12,3 C 11,7 C 10,6 C 76 % 1026,4 hPa 0,0 l/m 0 min 0 min 0 W/m 0,0 km/h (0 Bft) 93,62 %
10.04.2020 02:04 12,3 C 11,1 C 10,6 C 76 % 1026,3 hPa 0,0 l/m 0 min 0 min 0 W/m 0,0 km/h (0 Bft) 95,74 %
10.04.2020 02:06 12,3 C 11,1 C 10,6 C 76 % 1026,3 hPa 0,0 l/m 0 min 0 min 0 W/m 6,4 km/h (2 Bft) 95,74 %
10.04.2020 02:08 12,2 C 11,1 C 10,6 C 76 % 1026,3 hPa 0,0 l/m 0 min 0 min 0 W/m 6,4 km/h (2 Bft) 93,62 %
10.04.2020 02:10 12,2 C 11,1 C 10,6 C 76 % 1026,3 hPa 0,0 l/m 0 min 0 min 0 W/m 12,9 km/h (3 Bft) 93,62 %
10.04.2020 02:12 12,2 C 11,1 C 10,6 C 76 % 1026,3 hPa 0,0 l/m 0 min 0 min 0 W/m 9,7 km/h (2 Bft) 95,65 %
10.04.2020 02:14 12,2 C 11,1 C 10,6 C 76 % 1026,2 hPa 0,0 l/m 0 min 0 min 0 W/m 0,0 km/h (0 Bft) 95,74 %
10.04.2020 02:16 12,2 C 11,1 C 10,6 C 77 % 1026,3 hPa 0,0 l/m 0 min 0 min 0 W/m 3,2 km/h (1 Bft) 95,74 %
10.04.2020 02:18 12,2 C 11,1 C 10,6 C 77 % 1026,2 hPa 0,0 l/m 0 min 0 min 0 W/m 3,2 km/h (1 Bft) 93,62 %
10.04.2020 02:20 12,2 C 11,1 C 10,6 C 77 % 1026,3 hPa 0,0 l/m 0 min 0 min 0 W/m 9,7 km/h (2 Bft) 93,62 %
10.04.2020 02:22 12,2 C 11,1 C 10,6 C 77 % 1026,2 hPa 0,0 l/m 0 min 0 min 0 W/m 3,2 km/h (1 Bft) 93,62 %
10.04.2020 02:24 12,2 C 11,1 C 10,6 C 77 % 1026,3 hPa 0,0 l/m 0 min 0 min 0 W/m 3,2 km/h (1 Bft) 93,48 %
10.04.2020 02:26 12,2 C 11,1 C 10,6 C 77 % 1026,2 hPa 0,0 l/m 0 min 0 min 0 W/m 0,0 km/h (0 Bft) 95,74 %
10.04.2020 02:28 12,2 C 11,1 C 10,6 C 77 % 1026,2 hPa 0,0 l/m 0 min 0 min 0 W/m 3,2 km/h (1 Bft) 95,74 %
10.04.2020 02:30 12,2 C 11,1 C 10,6 C 77 % 1026,2 hPa 0,0 l/m 0 min 0 min 0 W/m 0,0 km/h (0 Bft) 93,62 %
10.04.2020 02:32 12,2 C 11,1 C 10,6 C 77 % 1026,3 hPa 0,0 l/m 0 min 0 min 0 W/m 3,2 km/h (1 Bft) 97,87 %
10.04.2020 02:34 12,1 C 11,1 C 10,6 C 77 % 1026,2 hPa 0,0 l/m 0 min 0 min 0 W/m 6,4 km/h (2 Bft) 95,65 %
10.04.2020 02:36 12,1 C 11,1 C 10,6 C 77 % 1026,3 hPa 0,0 l/m 0 min 0 min 0 W/m 0,0 km/h (0 Bft) 95,74 %
10.04.2020 02:38 12,1 C 11,1 C 10,0 C 77 % 1026,2 hPa 0,0 l/m 0 min 0 min 0 W/m 0,0 km/h (0 Bft) 95,74 %
10.04.2020 02:40 12,1 C 11,1 C 10,0 C 77 % 1026,3 hPa 0,0 l/m 0 min 0 min 0 W/m 0,0 km/h (0 Bft) 95,74 %
10.04.2020 02:42 12,1 C 11,1 C 10,0 C 77 % 1026,2 hPa 0,0 l/m 0 min 0 min 0 W/m 0,0 km/h (0 Bft) 93,62 %
10.04.2020 02:44 12,1 C 10,6 C 10,0 C 77 % 1026,3 hPa 0,0 l/m 0 min 0 min 0 W/m 0,0 km/h (0 Bft) 95,74 %
10.04.2020 02:46 12,1 C 10,6 C 10,0 C 77 % 1026,3 hPa 0,0 l/m 0 min 0 min 0 W/m 0,0 km/h (0 Bft) 93,48 %
10.04.2020 02:48 12,0 C 10,6 C 10,0 C 77 % 1026,3 hPa 0,0 l/m 0 min 0 min 0 W/m 0,0 km/h (0 Bft) 97,87 %
10.04.2020 02:50 12,0 C 10,6 C 10,0 C 77 % 1026,2 hPa 0,0 l/m 0 min 0 min 0 W/m 0,0 km/h (0 Bft) 95,74 %
10.04.2020 02:52 12,0 C 10,6 C 10,0 C 77 % 1026,2 hPa 0,0 l/m 0 min 0 min 0 W/m 0,0 km/h (0 Bft) 97,87 %
10.04.2020 02:54 11,9 C 10,6 C 10,0 C 77 % 1026,3 hPa 0,0 l/m 0 min 0 min 0 W/m 0,0 km/h (0 Bft) 95,74 %
10.04.2020 02:56 11,9 C 10,6 C 10,0 C 78 % 1026,3 hPa 0,0 l/m 0 min 0 min 0 W/m 0,0 km/h (0 Bft) 97,87 %
10.04.2020 02:58 11,9 C 10,6 C 10,0 C 78 % 1026,3 hPa 0,0 l/m 0 min 0 min 0 W/m 0,0 km/h (0 Bft) 97,83 %
10.04.2020 03:00 11,9 C 10,0 C 9,4 C 78 % 1026,3 hPa 0,0 l/m 0 min 0 min 0 W/m 0,0 km/h (0 Bft) 95,74 %
10.04.2020 03:02 11,8 C 10,0 C 9,4 C 78 % 1026,3 hPa 0,0 l/m 0 min 0 min 0 W/m 0,0 km/h (0 Bft) 97,87 %
10.04.2020 03:04 11,8 C 10,0 C 9,4 C 78 % 1026,3 hPa 0,0 l/m 0 min 0 min 0 W/m 0,0 km/h (0 Bft) 97,87 %
10.04.2020 03:06 11,8 C 10,0 C 9,4 C 78 % 1026,3 hPa 0,0 l/m 0 min 0 min 0 W/m 0,0 km/h (0 Bft) 100,00 %
10.04.2020 03:08 11,8 C 10,0 C 9,4 C 78 % 1026,3 hPa 0,0 l/m 0 min 0 min 0 W/m 0,0 km/h (0 Bft) 97,87 %
10.04.2020 03:10 11,7 C 10,0 C 9,4 C 78 % 1026,3 hPa 0,0 l/m 0 min 0 min 0 W/m 0,0 km/h (0 Bft) 97,83 %
10.04.2020 03:12 11,7 C 10,0 C 9,4 C 78 % 1026,3 hPa 0,0 l/m 0 min 0 min 0 W/m 0,0 km/h (0 Bft) 97,87 %
10.04.2020 03:14 11,7 C 10,0 C 9,4 C 78 % 1026,3 hPa 0,0 l/m 0 min 0 min 0 W/m 0,0 km/h (0 Bft) 97,87 %
10.04.2020 03:16 11,6 C 10,0 C 9,4 C 79 % 1026,3 hPa 0,0 l/m 0 min 0 min 0 W/m 0,0 km/h (0 Bft) 97,87 %
10.04.2020 03:18 11,6 C 10,0 C 9,4 C 79 % 1026,3 hPa 0,0 l/m 0 min 0 min 0 W/m 0,0 km/h (0 Bft) 97,87 %
10.04.2020 03:20 11,6 C 10,0 C 9,4 C 79 % 1026,3 hPa 0,0 l/m 0 min 0 min 0 W/m 0,0 km/h (0 Bft) 97,87 %
10.04.2020 03:22 11,6 C 10,0 C 9,4 C 79 % 1026,3 hPa 0,0 l/m 0 min 0 min 0 W/m 0,0 km/h (0 Bft) 97,83 %
10.04.2020 03:24 11,5 C 10,0 C 9,4 C 79 % 1026,3 hPa 0,0 l/m 0 min 0 min 0 W/m 0,0 km/h (0 Bft) 100,00 %
10.04.2020 03:26 11,4 C 10,0 C 9,4 C 79 % 1026,3 hPa 0,0 l/m 0 min 0 min 0 W/m 0,0 km/h (0 Bft) 100,00 %
10.04.2020 03:28 11,4 C 10,0 C 9,4 C 79 % 1026,4 hPa 0,0 l/m 0 min 0 min 0 W/m 0,0 km/h (0 Bft) 100,00 %
10.04.2020 03:30 11,4 C 10,0 C 9,4 C 79 % 1026,3 hPa 0,0 l/m 0 min 0 min 0 W/m 0,0 km/h (0 Bft) 100,00 %
10.04.2020 03:32 11,4 C 10,0 C 8,9 C 79 % 1026,4 hPa 0,0 l/m 0 min 0 min 0 W/m 0,0 km/h (0 Bft) 97,83 %
10.04.2020 03:34 11,3 C 9,4 C 8,9 C 80 % 1026,3 hPa 0,0 l/m 0 min 0 min 0 W/m 0,0 km/h (0 Bft) 97,87 %
10.04.2020 03:36 11,3 C 10,0 C 8,9 C 80 % 1026,3 hPa 0,0 l/m 0 min 0 min 0 W/m 0,0 km/h (0 Bft) 100,00 %
10.04.2020 03:38 11,3 C 9,4 C 8,9 C 80 % 1026,4 hPa 0,0 l/m 0 min 0 min 0 W/m 0,0 km/h (0 Bft) 100,00 %
10.04.2020 03:40 11,3 C 9,4 C 8,9 C 80 % 1026,3 hPa 0,0 l/m 0 min 0 min 0 W/m 0,0 km/h (0 Bft) 97,87 %
10.04.2020 03:42 11,2 C 9,4 C 8,9 C 80 % 1026,3 hPa 0,0 l/m 0 min 0 min 0 W/m 0,0 km/h (0 Bft) 100,00 %
10.04.2020 03:44 11,2 C 9,4 C 8,9 C 80 % 1026,4 hPa 0,0 l/m 0 min 0 min 0 W/m 0,0 km/h (0 Bft) 100,00 %
10.04.2020 03:46 11,2 C 9,4 C 8,9 C 80 % 1026,4 hPa 0,0 l/m 0 min 0 min 0 W/m 0,0 km/h (0 Bft) 95,74 %
10.04.2020 03:48 11,1 C 9,4 C 8,9 C 80 % 1026,4 hPa 0,0 l/m 0 min 0 min 0 W/m 0,0 km/h (0 Bft) 100,00 %
10.04.2020 03:50 11,1 C 9,4 C 8,9 C 80 % 1026,3 hPa 0,0 l/m 0 min 0 min 0 W/m 0,0 km/h (0 Bft) 97,87 %
10.04.2020 03:52 11,1 C 9,4 C 8,9 C 80 % 1026,3 hPa 0,0 l/m 0 min 0 min 0 W/m 0,0 km/h (0 Bft) 100,00 %
10.04.2020 03:54 11,1 C 9,4 C 8,3 C 81 % 1026,3 hPa 0,0 l/m 0 min 0 min 0 W/m 0,0 km/h (0 Bft) 97,87 %
10.04.2020 03:56 11,0 C 9,4 C 8,3 C 81 % 1026,3 hPa 0,0 l/m 0 min 0 min 0 W/m 0,0 km/h (0 Bft) 100,00 %
10.04.2020 03:58 11,0 C 9,4 C 8,3 C 81 % 1026,3 hPa 0,0 l/m 0 min 0 min 0 W/m 0,0 km/h (0 Bft) 100,00 %
10.04.2020 04:00 10,9 C 9,4 C 8,3 C 81 % 1026,2 hPa 0,0 l/m 0 min 0 min 0 W/m 0,0 km/h (0 Bft) 100,00 %
10.04.2020 04:05 10,8 C 8,9 C 8,3 C 81 % 1026,3 hPa 0,0 l/m 0 min 0 min 0 W/m 0,0 km/h (0 Bft) 98,73 %
10.04.2020 04:06 10,8 C 8,9 C 8,3 C 81 % 1026,2 hPa 0,0 l/m 0 min 0 min 0 W/m 0,0 km/h (0 Bft) 91,67 %
10.04.2020 04:08 10,8 C 8,9 C 8,3 C 81 % 1026,2 hPa 0,0 l/m 0 min 0 min 0 W/m 0,0 km/h (0 Bft) 95,65 %
10.04.2020 04:13 10,7 C 8,9 C 8,3 C 81 % 1026,3 hPa 0,0 l/m 0 min 0 min 0 W/m 0,0 km/h (0 Bft) 95,83 %
10.04.2020 04:14 10,7 C 8,9 C 8,3 C 82 % 1026,3 hPa 0,0 l/m 0 min 0 min 0 W/m 0,0 km/h (0 Bft) 100,00 %
10.04.2020 04:16 10,7 C 8,9 C 8,3 C 82 % 1026,3 hPa 0,0 l/m 0 min 0 min 0 W/m 0,0 km/h (0 Bft) 97,87 %
10.04.2020 04:18 10,6 C 8,9 C 8,3 C 82 % 1026,2 hPa 0,0 l/m 0 min 0 min 0 W/m 0,0 km/h (0 Bft) 97,83 %
10.04.2020 04:20 10,6 C 8,9 C 7,8 C 82 % 1026,3 hPa 0,0 l/m 0 min 0 min 0 W/m 0,0 km/h (0 Bft) 97,87 %
10.04.2020 04:22 10,6 C 8,9 C 7,8 C 82 % 1026,3 hPa 0,0 l/m 0 min 0 min 0 W/m 0,0 km/h (0 Bft) 97,87 %
10.04.2020 04:24 10,5 C 8,9 C 7,8 C 82 % 1026,3 hPa 0,0 l/m 0 min 0 min 0 W/m 0,0 km/h (0 Bft) 97,87 %
10.04.2020 04:26 10,5 C 8,9 C 7,8 C 82 % 1026,2 hPa 0,0 l/m 0 min 0 min 0 W/m 0,0 km/h (0 Bft) 97,87 %
10.04.2020 04:28 10,4 C 8,9 C 7,8 C 82 % 1026,2 hPa 0,0 l/m 0 min 0 min 0 W/m 0,0 km/h (0 Bft) 97,87 %
10.04.2020 04:30 10,4 C 8,9 C 7,8 C 83 % 1026,2 hPa 0,0 l/m 0 min 0 min 0 W/m 0,0 km/h (0 Bft) 97,83 %
10.04.2020 04:32 10,4 C 8,9 C 7,8 C 83 % 1026,2 hPa 0,0 l/m 0 min 0 min 0 W/m 0,0 km/h (0 Bft) 95,74 %
10.04.2020 04:34 10,4 C 8,9 C 8,3 C 83 % 1026,2 hPa 0,0 l/m 0 min 0 min 0 W/m 0,0 km/h (0 Bft) 93,62 %
10.04.2020 04:36 10,3 C 8,9 C 8,3 C 83 % 1026,2 hPa 0,0 l/m 0 min 0 min 0 W/m 0,0 km/h (0 Bft) 100,00 %
10.04.2020 04:38 10,3 C 8,9 C 7,8 C 83 % 1026,2 hPa 0,0 l/m 0 min 0 min 0 W/m 0,0 km/h (0 Bft) 100,00 %
10.04.2020 04:40 10,3 C 8,9 C 7,8 C 83 % 1026,2 hPa 0,0 l/m 0 min 0 min 0 W/m 0,0 km/h (0 Bft) 100,00 %
10.04.2020 04:42 10,3 C 8,9 C 7,8 C 83 % 1026,2 hPa 0,0 l/m 0 min 0 min 0 W/m 0,0 km/h (0 Bft) 100,00 %
10.04.2020 04:44 10,2 C 8,3 C 7,8 C 83 % 1026,2 hPa 0,0 l/m 0 min 0 min 0 W/m 0,0 km/h (0 Bft) 100,00 %
10.04.2020 04:46 10,2 C 8,3 C 7,8 C 83 % 1026,3 hPa 0,0 l/m 0 min 0 min 0 W/m 0,0 km/h (0 Bft) 100,00 %
10.04.2020 04:48 10,2 C 8,3 C 7,8 C 84 % 1026,2 hPa 0,0 l/m 0 min 0 min 0 W/m 0,0 km/h (0 Bft) 100,00 %
10.04.2020 04:50 10,1 C 8,3 C 7,8 C 84 % 1026,2 hPa 0,0 l/m 0 min 0 min 0 W/m 0,0 km/h (0 Bft) 100,00 %
10.04.2020 04:52 10,1 C 8,3 C 7,8 C 84 % 1026,3 hPa 0,0 l/m 0 min 0 min 0 W/m 0,0 km/h (0 Bft) 100,00 %
10.04.2020 04:54 10,1 C 8,3 C 7,8 C 83 % 1026,2 hPa 0,0 l/m 0 min 0 min 0 W/m 0,0 km/h (0 Bft) 97,83 %
10.04.2020 04:56 10,1 C 8,3 C 7,8 C 84 % 1026,2 hPa 0,0 l/m 0 min 0 min 0 W/m 0,0 km/h (0 Bft) 100,00 %
10.04.2020 04:58 10,1 C 8,3 C 7,8 C 84 % 1026,2 hPa 0,0 l/m 0 min 0 min 0 W/m 0,0 km/h (0 Bft) 97,87 %
10.04.2020 05:00 10,0 C 8,3 C 7,8 C 84 % 1026,3 hPa 0,0 l/m 0 min 0 min 0 W/m 0,0 km/h (0 Bft) 93,62 %
10.04.2020 05:02 10,0 C 8,3 C 7,8 C 84 % 1026,3 hPa 0,0 l/m 0 min 0 min 0 W/m 0,0 km/h (0 Bft) 97,87 %
10.04.2020 05:04 9,9 C 8,3 C 7,2 C 84 % 1026,3 hPa 0,0 l/m 0 min 0 min 0 W/m 0,0 km/h (0 Bft) 97,87 %
10.04.2020 05:06 9,9 C 8,3 C 7,2 C 84 % 1026,3 hPa 0,0 l/m 0 min 0 min 0 W/m 0,0 km/h (0 Bft) 95,65 %
10.04.2020 05:08 9,9 C 8,3 C 7,2 C 84 % 1026,3 hPa 0,0 l/m 0 min 0 min 0 W/m 0,0 km/h (0 Bft) 97,87 %
10.04.2020 05:10 9,9 C 8,3 C 7,2 C 84 % 1026,3 hPa 0,0 l/m 0 min 0 min 0 W/m 0,0 km/h (0 Bft) 97,87 %
10.04.2020 05:12 9,8 C 7,8 C 7,2 C 84 % 1026,3 hPa 0,0 l/m 0 min 0 min 0 W/m 0,0 km/h (0 Bft) 95,74 %
10.04.2020 05:14 9,8 C 7,8 C 7,2 C 84 % 1026,4 hPa 0,0 l/m 0 min 0 min 0 W/m 0,0 km/h (0 Bft) 97,87 %
10.04.2020 05:16 9,8 C 7,8 C 7,2 C 84 % 1026,4 hPa 0,0 l/m 0 min 0 min 0 W/m 0,0 km/h (0 Bft) 97,87 %
10.04.2020 05:18 9,8 C 7,8 C 7,2 C 84 % 1026,4 hPa 0,0 l/m 0 min 0 min 0 W/m 0,0 km/h (0 Bft) 91,30 %
10.04.2020 05:20 9,7 C 7,8 C 7,2 C 84 % 1026,4 hPa 0,0 l/m 0 min 0 min 0 W/m 0,0 km/h (0 Bft) 97,87 %
10.04.2020 05:22 9,7 C 7,8 C 6,7 C 84 % 1026,4 hPa 0,0 l/m 0 min 0 min 0 W/m 0,0 km/h (0 Bft) 97,87 %
10.04.2020 05:24 9,7 C 7,2 C 6,7 C 84 % 1026,4 hPa 0,0 l/m 0 min 0 min 0 W/m 0,0 km/h (0 Bft) 97,87 %
10.04.2020 05:26 9,6 C 7,2 C 6,7 C 84 % 1026,4 hPa 0,0 l/m 0 min 0 min 0 W/m 0,0 km/h (0 Bft) 97,87 %
10.04.2020 05:28 9,6 C 7,2 C 6,7 C 84 % 1026,4 hPa 0,0 l/m 0 min 0 min 0 W/m 0,0 km/h (0 Bft) 95,65 %
10.04.2020 05:30 9,6 C 7,2 C 6,7 C 84 % 1026,5 hPa 0,0 l/m 0 min 0 min 0 W/m 0,0 km/h (0 Bft) 97,87 %
10.04.2020 05:32 9,6 C 7,2 C 6,7 C 84 % 1026,4 hPa 0,0 l/m 0 min 0 min 0 W/m 0,0 km/h (0 Bft) 97,87 %
10.04.2020 05:34 9,5 C 7,2 C 6,7 C 84 % 1026,4 hPa 0,0 l/m 0 min 0 min 0 W/m 0,0 km/h (0 Bft) 97,87 %
10.04.2020 05:36 9,4 C 7,2 C 6,7 C 84 % 1026,4 hPa 0,0 l/m 0 min 0 min 0 W/m 0,0 km/h (0 Bft) 95,74 %
10.04.2020 05:38 9,4 C 7,2 C 6,7 C 84 % 1026,4 hPa 0,0 l/m 0 min 0 min 0 W/m 0,0 km/h (0 Bft) 97,87 %
10.04.2020 05:40 9,4 C 7,2 C 6,7 C 84 % 1026,4 hPa 0,0 l/m 0 min 0 min 0 W/m 0,0 km/h (0 Bft) 95,65 %
10.04.2020 05:42 9,3 C 7,2 C 6,7 C 84 % 1026,4 hPa 0,0 l/m 0 min 0 min 0 W/m 0,0 km/h (0 Bft) 97,87 %
10.04.2020 05:44 9,3 C 7,2 C 6,7 C 84 % 1026,4 hPa 0,0 l/m 0 min 0 min 0 W/m 0,0 km/h (0 Bft) 97,87 %
10.04.2020 05:46 9,3 C 7,2 C 6,7 C 84 % 1026,4 hPa 0,0 l/m 0 min 0 min 0 W/m 0,0 km/h (0 Bft) 100,00 %
10.04.2020 05:48 9,2 C 7,2 C 6,7 C 84 % 1026,4 hPa 0,0 l/m 0 min 0 min 0 W/m 0,0 km/h (0 Bft) 97,87 %
10.04.2020 05:50 9,2 C 7,2 C 6,7 C 84 % 1026,4 hPa 0,0 l/m 0 min 0 min 0 W/m 0,0 km/h (0 Bft) 95,74 %
10.04.2020 05:52 9,2 C 7,2 C 6,1 C 85 % 1026,4 hPa 0,0 l/m 0 min 0 min 0 W/m 0,0 km/h (0 Bft) 97,87 %
10.04.2020 05:54 9,1 C 7,2 C 6,1 C 85 % 1026,5 hPa 0,0 l/m 0 min 0 min 0 W/m 0,0 km/h (0 Bft) 100,00 %
10.04.2020 05:56 9,1 C 7,2 C 6,1 C 85 % 1026,5 hPa 0,0 l/m 0 min 0 min 0 W/m 0,0 km/h (0 Bft) 100,00 %
10.04.2020 05:58 9,1 C 7,2 C 6,1 C 85 % 1026,4 hPa 0,0 l/m 0 min 0 min 0 W/m 0,0 km/h (0 Bft) 97,87 %
10.04.2020 06:00 9,0 C 7,2 C 6,1 C 85 % 1026,4 hPa 0,0 l/m 0 min 0 min 0 W/m 0,0 km/h (0 Bft) 100,00 %
10.04.2020 06:02 9,0 C 7,2 C 6,1 C 85 % 1026,4 hPa 0,0 l/m 0 min 0 min 0 W/m 0,0 km/h (0 Bft) 97,87 %
10.04.2020 06:04 8,9 C 7,2 C 6,1 C 85 % 1026,4 hPa 0,0 l/m 0 min 0 min 0 W/m 0,0 km/h (0 Bft) 97,87 %
10.04.2020 06:08 8,9 C 7,2 C 6,1 C 85 % 1026,4 hPa 0,0 l/m 0 min 0 min 0 W/m 0,0 km/h (0 Bft) 97,85 %
10.04.2020 06:10 8,8 C 7,2 C 6,1 C 85 % 1026,4 hPa 0,0 l/m 0 min 0 min 0 W/m 0,0 km/h (0 Bft) 95,74 %
10.04.2020 06:12 8,8 C 7,2 C 6,1 C 85 % 1026,4 hPa 0,0 l/m 0 min 0 min 0 W/m 0,0 km/h (0 Bft) 93,62 %
10.04.2020 06:14 8,8 C 7,2 C 6,1 C 86 % 1026,3 hPa 0,0 l/m 0 min 0 min 0 W/m 0,0 km/h (0 Bft) 97,87 %
10.04.2020 06:16 8,8 C 7,2 C 6,1 C 86 % 1026,4 hPa 0,0 l/m 0 min 0 min 0 W/m 0,0 km/h (0 Bft) 93,62 %
10.04.2020 06:18 8,8 C 6,7 C 6,1 C 86 % 1026,4 hPa 0,0 l/m 0 min 0 min 0 W/m 0,0 km/h (0 Bft) 97,83 %
10.04.2020 06:20 8,7 C 6,7 C 6,1 C 86 % 1026,3 hPa 0,0 l/m 0 min 0 min 0 W/m 0,0 km/h (0 Bft) 97,87 %
10.04.2020 06:22 8,7 C 6,7 C 6,1 C 86 % 1026,4 hPa 0,0 l/m 0 min 0 min 0 W/m 0,0 km/h (0 Bft) 97,87 %
10.04.2020 06:24 8,6 C 6,7 C 6,1 C 86 % 1026,4 hPa 0,0 l/m 0 min 0 min 0 W/m 0,0 km/h (0 Bft) 95,74 %
10.04.2020 06:26 8,6 C 6,7 C 6,1 C 86 % 1026,4 hPa 0,0 l/m 0 min 0 min 0 W/m 0,0 km/h (0 Bft) 95,74 %
10.04.2020 06:28 8,6 C 6,7 C 6,1 C 86 % 1026,4 hPa 0,0 l/m 0 min 0 min 0 W/m 0,0 km/h (0 Bft) 95,74 %
10.04.2020 06:30 8,6 C 6,7 C 6,1 C 86 % 1026,4 hPa 0,0 l/m 0 min 0 min 0 W/m 0,0 km/h (0 Bft) 95,65 %
10.04.2020 06:32 8,5 C 6,7 C 6,1 C 86 % 1026,5 hPa 0,0 l/m 0 min 0 min 0 W/m 0,0 km/h (0 Bft) 95,74 %
10.04.2020 06:34 8,5 C 6,7 C 5,6 C 86 % 1026,4 hPa 0,0 l/m 0 min 0 min 0 W/m 0,0 km/h (0 Bft) 97,87 %
10.04.2020 06:36 8,4 C 6,7 C 5,6 C 86 % 1026,5 hPa 0,0 l/m 0 min 0 min 0 W/m 0,0 km/h (0 Bft) 97,87 %
10.04.2020 06:38 8,4 C 6,7 C 5,6 C 86 % 1026,4 hPa 0,0 l/m 0 min 0 min 0 W/m 0,0 km/h (0 Bft) 97,87 %
10.04.2020 06:40 8,4 C 6,7 C 5,6 C 86 % 1026,4 hPa 0,0 l/m 0 min 0 min 0 W/m 0,0 km/h (0 Bft) 97,83 %
10.04.2020 06:42 8,4 C 6,7 C 5,6 C 86 % 1026,4 hPa 0,0 l/m 0 min 0 min 0 W/m 0,0 km/h (0 Bft) 97,87 %
10.04.2020 06:44 8,3 C 6,7 C 5,6 C 86 % 1026,4 hPa 0,0 l/m 0 min 0 min 0 W/m 0,0 km/h (0 Bft) 97,87 %
10.04.2020 06:46 8,3 C 6,7 C 5,6 C 86 % 1026,4 hPa 0,0 l/m 0 min 0 min 0 W/m 0,0 km/h (0 Bft) 97,87 %
10.04.2020 06:48 8,3 C 6,7 C 5,6 C 86 % 1026,4 hPa 0,0 l/m 0 min 0 min 0 W/m 0,0 km/h (0 Bft) 97,87 %
10.04.2020 06:50 8,2 C 6,7 C 5,6 C 87 % 1026,4 hPa 0,0 l/m 0 min 0 min 0 W/m 0,0 km/h (0 Bft) 97,87 %
10.04.2020 06:52 8,2 C 6,7 C 5,6 C 87 % 1026,4 hPa 0,0 l/m 0 min 0 min 4 W/m 0,0 km/h (0 Bft) 97,83 %
10.04.2020 06:54 8,2 C 6,7 C 5,6 C 87 % 1026,4 hPa 0,0 l/m 0 min 0 min 5 W/m 0,0 km/h (0 Bft) 97,87 %
10.04.2020 06:56 8,2 C 6,7 C 5,6 C 87 % 1026,4 hPa 0,0 l/m 0 min 0 min 6 W/m 0,0 km/h (0 Bft) 97,87 %
10.04.2020 06:58 8,1 C 6,7 C 5,6 C 87 % 1026,4 hPa 0,0 l/m 0 min 0 min 7 W/m 0,0 km/h (0 Bft) 97,87 %
10.04.2020 07:00 8,1 C 6,7 C 5,6 C 87 % 1026,4 hPa 0,0 l/m 0 min 0 min 7 W/m 0,0 km/h (0 Bft) 97,87 %
10.04.2020 07:02 8,1 C 6,7 C 5,6 C 87 % 1026,4 hPa 0,0 l/m 0 min 0 min 9 W/m 0,0 km/h (0 Bft) 95,74 %
10.04.2020 07:04 8,1 C 6,7 C 5,6 C 87 % 1026,4 hPa 0,0 l/m 0 min 0 min 9 W/m 0,0 km/h (0 Bft) 97,83 %
10.04.2020 07:06 8,0 C 6,7 C 5,6 C 87 % 1026,4 hPa 0,0 l/m 0 min 0 min 10 W/m 0,0 km/h (0 Bft) 97,87 %
10.04.2020 07:08 8,0 C 6,7 C 5,6 C 87 % 1026,4 hPa 0,0 l/m 0 min 0 min 11 W/m 0,0 km/h (0 Bft) 97,87 %
10.04.2020 07:10 7,9 C 6,7 C 5,6 C 87 % 1026,4 hPa 0,0 l/m 0 min 0 min 11 W/m 0,0 km/h (0 Bft) 97,87 %
10.04.2020 07:12 7,9 C 6,7 C 5,6 C 87 % 1026,4 hPa 0,0 l/m 0 min 0 min 12 W/m 0,0 km/h (0 Bft) 97,87 %
10.04.2020 07:14 7,9 C 6,7 C 5,6 C 87 % 1026,5 hPa 0,0 l/m 0 min 0 min 13 W/m 0,0 km/h (0 Bft) 97,87 %
10.04.2020 07:16 7,9 C 6,7 C 5,6 C 87 % 1026,5 hPa 0,0 l/m 0 min 0 min 14 W/m 0,0 km/h (0 Bft) 97,83 %
10.04.2020 07:18 7,8 C 6,7 C 6,1 C 87 % 1026,5 hPa 0,0 l/m 0 min 0 min 14 W/m 0,0 km/h (0 Bft) 97,87 %
10.04.2020 07:20 7,8 C 6,7 C 6,1 C 88 % 1026,5 hPa 0,0 l/m 0 min 0 min 13 W/m 0,0 km/h (0 Bft) 97,87 %
10.04.2020 07:22 7,8 C 6,7 C 6,1 C 88 % 1026,6 hPa 0,0 l/m 0 min 0 min 14 W/m 0,0 km/h (0 Bft) 97,87 %
10.04.2020 07:24 7,8 C 6,7 C 6,1 C 88 % 1026,7 hPa 0,0 l/m 0 min 0 min 16 W/m 0,0 km/h (0 Bft) 97,87 %
10.04.2020 07:26 7,8 C 6,7 C 6,1 C 88 % 1026,6 hPa 0,0 l/m 0 min 0 min 17 W/m 0,0 km/h (0 Bft) 97,87 %
10.04.2020 07:28 7,8 C 6,7 C 6,1 C 88 % 1026,6 hPa 0,0 l/m 0 min 0 min 18 W/m 0,0 km/h (0 Bft) 97,83 %
10.04.2020 07:30 7,8 C 6,7 C 6,1 C 88 % 1026,6 hPa 0,0 l/m 0 min 0 min 19 W/m 0,0 km/h (0 Bft) 97,87 %
10.04.2020 07:32 7,8 C 7,2 C 6,1 C 88 % 1026,5 hPa 0,0 l/m 0 min 0 min 20 W/m 0,0 km/h (0 Bft) 97,87 %
10.04.2020 07:34 7,7 C 7,2 C 6,1 C 88 % 1026,5 hPa 0,0 l/m 0 min 0 min 21 W/m 0,0 km/h (0 Bft) 97,87 %
10.04.2020 07:36 7,7 C 7,2 C 6,1 C 88 % 1026,5 hPa 0,0 l/m 0 min 0 min 22 W/m 0,0 km/h (0 Bft) 55,32 %
10.04.2020 07:38 7,7 C 7,2 C 6,1 C 88 % 1026,5 hPa 0,0 l/m 0 min 0 min 23 W/m 0,0 km/h (0 Bft) 100,00 %
10.04.2020 07:40 7,7 C 7,2 C 6,1 C 88 % 1026,6 hPa 0,0 l/m 0 min 0 min 25 W/m 0,0 km/h (0 Bft) 100,00 %
10.04.2020 07:42 7,7 C 7,2 C 6,1 C 89 % 1026,5 hPa 0,0 l/m 0 min 0 min 25 W/m 0,0 km/h (0 Bft) 95,74 %
10.04.2020 07:44 7,7 C 7,2 C 6,7 C 89 % 1026,5 hPa 0,0 l/m 0 min 0 min 25 W/m 0,0 km/h (0 Bft) 93,62 %
10.04.2020 07:46 7,7 C 7,2 C 6,7 C 89 % 1026,6 hPa 0,0 l/m 0 min 0 min 26 W/m 0,0 km/h (0 Bft) 100,00 %
10.04.2020 07:48 7,7 C 7,2 C 6,7 C 89 % 1026,5 hPa 0,0 l/m 0 min 0 min 26 W/m 0,0 km/h (0 Bft) 100,00 %
10.04.2020 07:50 7,7 C 7,2 C 6,7 C 89 % 1026,5 hPa 0,0 l/m 0 min 0 min 26 W/m 0,0 km/h (0 Bft) 95,65 %
10.04.2020 07:52 7,7 C 7,8 C 6,7 C 89 % 1026,6 hPa 0,0 l/m 0 min 0 min 26 W/m 0,0 km/h (0 Bft) 97,87 %
10.04.2020 07:54 7,7 C 7,8 C 6,7 C 89 % 1026,7 hPa 0,0 l/m 0 min 0 min 27 W/m 0,0 km/h (0 Bft) 97,87 %
10.04.2020 07:56 7,8 C 7,8 C 6,7 C 90 % 1026,7 hPa 0,0 l/m 0 min 0 min 30 W/m 0,0 km/h (0 Bft) 97,87 %
10.04.2020 07:58 7,8 C 7,8 C 6,7 C 90 % 1026,7 hPa 0,0 l/m 0 min 0 min 30 W/m 0,0 km/h (0 Bft) 97,87 %
10.04.2020 08:00 7,8 C 7,8 C 7,2 C 90 % 1026,7 hPa 0,0 l/m 0 min 0 min 31 W/m 0,0 km/h (0 Bft) 93,62 %
10.04.2020 08:02 7,8 C 7,8 C 7,2 C 90 % 1026,7 hPa 0,0 l/m 0 min 0 min 32 W/m 0,0 km/h (0 Bft) 93,48 %
10.04.2020 08:04 7,8 C 7,8 C 7,2 C 90 % 1026,7 hPa 0,0 l/m 0 min 0 min 33 W/m 0,0 km/h (0 Bft) 95,74 %
10.04.2020 08:06 7,8 C 7,8 C 7,2 C 90 % 1026,7 hPa 0,0 l/m 0 min 0 min 33 W/m 0,0 km/h (0 Bft) 95,74 %
10.04.2020 08:08 7,9 C 7,8 C 7,2 C 90 % 1026,8 hPa 0,0 l/m 0 min 0 min 33 W/m 0,0 km/h (0 Bft) 95,74 %
10.04.2020 08:10 7,9 C 8,3 C 7,2 C 90 % 1026,8 hPa 0,0 l/m 0 min 0 min 35 W/m 0,0 km/h (0 Bft) 93,62 %
10.04.2020 08:12 7,9 C 8,3 C 7,2 C 90 % 1026,8 hPa 0,0 l/m 0 min 0 min 36 W/m 0,0 km/h (0 Bft) 93,62 %
10.04.2020 08:14 8,0 C 8,3 C 7,2 C 91 % 1026,9 hPa 0,0 l/m 0 min 0 min 37 W/m 0,0 km/h (0 Bft) 95,65 %
10.04.2020 08:16 8,0 C 8,3 C 7,8 C 91 % 1026,9 hPa 0,0 l/m 0 min 0 min 37 W/m 0,0 km/h (0 Bft) 95,74 %
10.04.2020 08:18 8,1 C 8,3 C 7,8 C 91 % 1026,9 hPa 0,0 l/m 0 min 0 min 39 W/m 0,0 km/h (0 Bft) 95,74 %
10.04.2020 08:20 8,1 C 8,3 C 7,8 C 91 % 1026,9 hPa 0,0 l/m 0 min 0 min 39 W/m 0,0 km/h (0 Bft) 95,74 %
10.04.2020 08:22 8,1 C 8,3 C 7,8 C 91 % 1026,9 hPa 0,0 l/m 0 min 0 min 39 W/m 0,0 km/h (0 Bft) 95,74 %
10.04.2020 08:24 8,2 C 8,9 C 7,8 C 91 % 1026,9 hPa 0,0 l/m 0 min 0 min 40 W/m 0,0 km/h (0 Bft) 93,62 %
10.04.2020 08:26 8,2 C 8,9 C 7,8 C 91 % 1026,8 hPa 0,0 l/m 0 min 0 min 40 W/m 0,0 km/h (0 Bft) 95,65 %
10.04.2020 08:28 8,2 C 8,9 C 7,8 C 91 % 1026,8 hPa 0,0 l/m 0 min 0 min 40 W/m 0,0 km/h (0 Bft) 95,74 %
10.04.2020 08:30 8,3 C 8,9 C 7,8 C 91 % 1026,8 hPa 0,0 l/m 0 min 0 min 41 W/m 0,0 km/h (0 Bft) 97,87 %
10.04.2020 08:32 8,3 C 8,9 C 7,8 C 91 % 1026,9 hPa 0,0 l/m 0 min 0 min 42 W/m 0,0 km/h (0 Bft) 97,87 %
10.04.2020 08:34 8,4 C 8,9 C 8,3 C 91 % 1026,9 hPa 0,0 l/m 0 min 0 min 42 W/m 0,0 km/h (0 Bft) 97,87 %
10.04.2020 08:36 8,4 C 8,9 C 8,3 C 91 % 1026,9 hPa 0,0 l/m 0 min 0 min 44 W/m 0,0 km/h (0 Bft) 97,83 %
10.04.2020 08:38 8,4 C 8,9 C 8,3 C 91 % 1026,9 hPa 0,0 l/m 0 min 0 min 44 W/m 0,0 km/h (0 Bft) 95,74 %
10.04.2020 08:40 8,5 C 8,9 C 8,3 C 91 % 1026,9 hPa 0,0 l/m 0 min 0 min 45 W/m 0,0 km/h (0 Bft) 100,00 %
10.04.2020 08:42 8,6 C 9,4 C 8,3 C 91 % 1026,9 hPa 0,0 l/m 0 min 0 min 46 W/m 0,0 km/h (0 Bft) 95,74 %
10.04.2020 08:44 8,6 C 9,4 C 8,3 C 91 % 1026,9 hPa 0,0 l/m 0 min 0 min 46 W/m 0,0 km/h (0 Bft) 97,87 %
10.04.2020 08:46 8,6 C 9,4 C 8,3 C 91 % 1026,9 hPa 0,0 l/m 0 min 0 min 47 W/m 0,0 km/h (0 Bft) 100,00 %
10.04.2020 08:48 8,7 C 9,4 C 8,3 C 91 % 1026,9 hPa 0,0 l/m 0 min 0 min 49 W/m 0,0 km/h (0 Bft) 100,00 %
10.04.2020 08:50 8,7 C 9,4 C 8,3 C 91 % 1026,9 hPa 0,0 l/m 0 min 0 min 49 W/m 0,0 km/h (0 Bft) 100,00 %
10.04.2020 08:52 8,8 C 9,4 C 8,9 C 91 % 1026,9 hPa 0,0 l/m 0 min 0 min 50 W/m 0,0 km/h (0 Bft) 100,00 %
10.04.2020 08:54 8,8 C 10,0 C 8,9 C 91 % 1026,9 hPa 0,0 l/m 0 min 0 min 51 W/m 3,2 km/h (1 Bft) 100,00 %
10.04.2020 08:56 8,8 C 10,0 C 8,9 C 91 % 1026,9 hPa 0,0 l/m 0 min 0 min 52 W/m 0,0 km/h (0 Bft) 100,00 %
10.04.2020 08:58 8,9 C 10,0 C 8,9 C 91 % 1026,9 hPa 0,0 l/m 0 min 0 min 53 W/m 0,0 km/h (0 Bft) 97,87 %
10.04.2020 09:00 8,9 C 10,0 C 8,9 C 91 % 1027,0 hPa 0,0 l/m 0 min 0 min 53 W/m 0,0 km/h (0 Bft) 100,00 %
10.04.2020 09:02 9,0 C 10,0 C 8,9 C 91 % 1027,0 hPa 0,0 l/m 0 min 0 min 106 W/m 3,2 km/h (1 Bft) 100,00 %
10.04.2020 09:04 9,1 C 11,7 C 8,9 C 91 % 1027,0 hPa 0,0 l/m 2 min 0 min 261 W/m 3,2 km/h (1 Bft) 100,00 %
10.04.2020 09:06 9,1 C 12,8 C 8,9 C 91 % 1027,0 hPa 0,0 l/m 2 min 0 min 296 W/m 3,2 km/h (1 Bft) 100,00 %
10.04.2020 09:08 9,2 C 12,2 C 8,9 C 91 % 1027,0 hPa 0,0 l/m 2 min 0 min 304 W/m 0,0 km/h (0 Bft) 97,87 %
10.04.2020 09:10 9,3 C 12,2 C 9,4 C 90 % 1027,0 hPa 0,0 l/m 2 min 0 min 310 W/m 3,2 km/h (1 Bft) 100,00 %
10.04.2020 09:12 9,4 C 13,3 C 9,4 C 90 % 1027,0 hPa 0,0 l/m 2 min 0 min 316 W/m 0,0 km/h (0 Bft) 100,00 %
10.04.2020 09:14 9,4 C 15,0 C 9,4 C 90 % 1027,0 hPa 0,0 l/m 2 min 0 min 324 W/m 6,4 km/h (2 Bft) 100,00 %
10.04.2020 09:16 9,6 C 15,6 C 9,4 C 90 % 1027,0 hPa 0,0 l/m 2 min 0 min 331 W/m 6,4 km/h (2 Bft) 100,00 %
10.04.2020 09:18 9,7 C 16,7 C 9,4 C 90 % 1027,0 hPa 0,0 l/m 2 min 0 min 339 W/m 3,2 km/h (1 Bft) 100,00 %
10.04.2020 09:20 9,8 C 16,1 C 9,4 C 90 % 1027,0 hPa 0,0 l/m 2 min 0 min 345 W/m 6,4 km/h (2 Bft) 100,00 %
10.04.2020 09:22 9,9 C 16,1 C 10,0 C 90 % 1027,0 hPa 0,0 l/m 2 min 0 min 351 W/m 6,4 km/h (2 Bft) 97,87 %
10.04.2020 09:24 10,1 C 16,7 C 10,0 C 89 % 1027,0 hPa 0,0 l/m 2 min 0 min 358 W/m 3,2 km/h (1 Bft) 100,00 %
10.04.2020 09:26 10,2 C 16,7 C 10,0 C 89 % 1027,1 hPa 0,0 l/m 2 min 0 min 365 W/m 6,4 km/h (2 Bft) 100,00 %
10.04.2020 09:28 10,4 C 16,7 C 10,6 C 89 % 1027,1 hPa 0,0 l/m 2 min 0 min 371 W/m 6,4 km/h (2 Bft) 100,00 %
10.04.2020 09:30 10,6 C 17,2 C 10,6 C 88 % 1027,1 hPa 0,0 l/m 2 min 0 min 376 W/m 6,4 km/h (2 Bft) 100,00 %
10.04.2020 09:32 10,8 C 17,8 C 10,6 C 88 % 1027,1 hPa 0,0 l/m 2 min 0 min 383 W/m 6,4 km/h (2 Bft) 100,00 %
10.04.2020 09:34 10,9 C 17,8 C 10,6 C 87 % 1027,0 hPa 0,0 l/m 2 min 0 min 389 W/m 3,2 km/h (1 Bft) 97,87 %
10.04.2020 09:36 11,1 C 18,3 C 10,6 C 87 % 1027,0 hPa 0,0 l/m 2 min 0 min 394 W/m 0,0 km/h (0 Bft) 100,00 %
10.04.2020 09:38 11,4 C 18,9 C 11,1 C 87 % 1027,0 hPa 0,0 l/m 2 min 0 min 400 W/m 6,4 km/h (2 Bft) 100,00 %
10.04.2020 09:40 11,6 C 18,9 C 11,1 C 86 % 1027,0 hPa 0,0 l/m 2 min 0 min 407 W/m 3,2 km/h (1 Bft) 100,00 %
10.04.2020 09:42 11,8 C 18,9 C 12,8 C 85 % 1027,0 hPa 0,0 l/m 2 min 0 min 396 W/m 3,2 km/h (1 Bft) 95,74 %
10.04.2020 09:44 12,0 C 18,9 C 15,0 C 84 % 1027,1 hPa 0,0 l/m 2 min 0 min 382 W/m 3,2 km/h (1 Bft) 95,74 %
10.04.2020 09:46 12,2 C 18,3 C 16,7 C 83 % 1027,1 hPa 0,0 l/m 2 min 0 min 376 W/m 0,0 km/h (0 Bft) 95,65 %
10.04.2020 09:48 12,3 C 18,9 C 17,8 C 83 % 1027,1 hPa 0,0 l/m 2 min 0 min 400 W/m 0,0 km/h (0 Bft) 97,87 %
10.04.2020 09:50 12,5 C 18,9 C 18,9 C 82 % 1027,1 hPa 0,0 l/m 2 min 0 min 420 W/m 0,0 km/h (0 Bft) 95,74 %
10.04.2020 09:52 12,7 C 18,9 C 19,4 C 81 % 1027,0 hPa 0,0 l/m 2 min 0 min 436 W/m 3,2 km/h (1 Bft) 97,87 %
10.04.2020 09:54 12,8 C 18,9 C 20,0 C 80 % 1027,1 hPa 0,0 l/m 2 min 0 min 441 W/m 0,0 km/h (0 Bft) 97,87 %
10.04.2020 09:56 12,9 C 18,9 C 19,4 C 79 % 1027,0 hPa 0,0 l/m 2 min 0 min 447 W/m 6,4 km/h (2 Bft) 97,87 %
10.04.2020 09:58 13,1 C 19,4 C 20,0 C 80 % 1027,1 hPa 0,0 l/m 2 min 0 min 454 W/m 0,0 km/h (0 Bft) 97,83 %
10.04.2020 10:00 13,3 C 20,0 C 20,6 C 79 % 1027,1 hPa 0,0 l/m 2 min 0 min 455 W/m 0,0 km/h (0 Bft) 97,87 %
10.04.2020 10:02 13,5 C 20,6 C 21,1 C 79 % 1027,1 hPa 0,0 l/m 2 min 0 min 467 W/m 3,2 km/h (1 Bft) 100,00 %
10.04.2020 10:04 13,7 C 20,6 C 21,1 C 78 % 1027,2 hPa 0,0 l/m 2 min 0 min 477 W/m 0,0 km/h (0 Bft) 97,87 %
10.04.2020 10:06 13,8 C 21,1 C 21,7 C 78 % 1027,2 hPa 0,0 l/m 2 min 0 min 485 W/m 0,0 km/h (0 Bft) 95,74 %
10.04.2020 10:08 14,0 C 20,6 C 21,1 C 77 % 1027,2 hPa 0,0 l/m 2 min 0 min 487 W/m 3,2 km/h (1 Bft) 97,87 %
10.04.2020 10:10 14,2 C 21,1 C 21,7 C 77 % 1027,2 hPa 0,0 l/m 2 min 0 min 494 W/m 3,2 km/h (1 Bft) 97,83 %
10.04.2020 10:12 14,3 C 21,1 C 22,2 C 77 % 1027,1 hPa 0,0 l/m 2 min 0 min 499 W/m 0,0 km/h (0 Bft) 93,62 %
10.04.2020 10:14 14,4 C 21,1 C 22,2 C 76 % 1027,2 hPa 0,0 l/m 2 min 0 min 504 W/m 0,0 km/h (0 Bft) 95,74 %
10.04.2020 10:16 14,6 C 21,1 C 21,7 C 75 % 1027,2 hPa 0,0 l/m 2 min 0 min 502 W/m 0,0 km/h (0 Bft) 95,74 %
10.04.2020 10:18 14,7 C 21,1 C 22,2 C 75 % 1027,1 hPa 0,0 l/m 2 min 0 min 508 W/m 3,2 km/h (1 Bft) 95,74 %
10.04.2020 10:20 14,8 C 21,7 C 22,8 C 74 % 1027,1 hPa 0,0 l/m 2 min 0 min 512 W/m 3,2 km/h (1 Bft) 97,87 %
10.04.2020 10:22 14,9 C 21,7 C 22,8 C 73 % 1027,1 hPa 0,0 l/m 2 min 0 min 518 W/m 9,7 km/h (2 Bft) 95,65 %
10.04.2020 10:24 15,1 C 21,7 C 22,2 C 73 % 1027,2 hPa 0,0 l/m 2 min 0 min 523 W/m 3,2 km/h (1 Bft) 97,87 %
10.04.2020 10:26 15,2 C 21,7 C 22,8 C 73 % 1027,2 hPa 0,0 l/m 2 min 0 min 532 W/m 3,2 km/h (1 Bft) 97,87 %
10.04.2020 10:28 15,3 C 22,2 C 22,2 C 73 % 1027,2 hPa 0,0 l/m 2 min 0 min 542 W/m 3,2 km/h (1 Bft) 95,74 %
10.04.2020 10:30 15,4 C 21,7 C 22,2 C 72 % 1027,2 hPa 0,0 l/m 2 min 0 min 550 W/m 0,0 km/h (0 Bft) 95,74 %
10.04.2020 10:32 15,5 C 22,2 C 23,3 C 72 % 1027,2 hPa 0,0 l/m 2 min 0 min 555 W/m 0,0 km/h (0 Bft) 95,74 %
10.04.2020 10:34 15,7 C 22,2 C 23,3 C 72 % 1027,2 hPa 0,0 l/m 2 min 0 min 559 W/m 6,4 km/h (2 Bft) 97,83 %
10.04.2020 10:36 15,8 C 22,8 C 23,3 C 72 % 1027,1 hPa 0,0 l/m 2 min 0 min 566 W/m 6,4 km/h (2 Bft) 97,87 %
10.04.2020 10:38 15,9 C 22,8 C 23,9 C 70 % 1027,2 hPa 0,0 l/m 2 min 0 min 568 W/m 9,7 km/h (2 Bft) 97,87 %
10.04.2020 10:40 16,0 C 22,8 C 23,3 C 71 % 1027,1 hPa 0,0 l/m 2 min 0 min 570 W/m 6,4 km/h (2 Bft) 97,87 %
10.04.2020 10:42 16,1 C 22,2 C 22,8 C 70 % 1027,1 hPa 0,0 l/m 2 min 0 min 571 W/m 0,0 km/h (0 Bft) 97,87 %
10.04.2020 10:44 16,2 C 22,8 C 23,3 C 69 % 1027,1 hPa 0,0 l/m 2 min 0 min 579 W/m 0,0 km/h (0 Bft) 97,83 %
10.04.2020 10:46 16,3 C 22,2 C 23,3 C 69 % 1027,0 hPa 0,0 l/m 2 min 0 min 588 W/m 9,7 km/h (2 Bft) 97,87 %
10.04.2020 10:48 16,4 C 22,8 C 23,3 C 69 % 1027,0 hPa 0,0 l/m 2 min 0 min 596 W/m 6,4 km/h (2 Bft) 97,87 %
10.04.2020 10:50 16,5 C 22,8 C 23,3 C 68 % 1027,0 hPa 0,0 l/m 2 min 0 min 600 W/m 3,2 km/h (1 Bft) 100,00 %
10.04.2020 10:52 16,6 C 23,9 C 23,9 C 69 % 1027,0 hPa 0,0 l/m 2 min 0 min 602 W/m 0,0 km/h (0 Bft) 100,00 %
10.04.2020 10:54 16,7 C 23,3 C 22,8 C 68 % 1027,0 hPa 0,0 l/m 2 min 0 min 607 W/m 3,2 km/h (1 Bft) 97,87 %
10.04.2020 10:56 16,8 C 23,9 C 23,3 C 67 % 1027,0 hPa 0,0 l/m 2 min 0 min 613 W/m 0,0 km/h (0 Bft) 100,00 %
10.04.2020 10:58 16,8 C 23,9 C 21,7 C 67 % 1027,0 hPa 0,0 l/m 2 min 0 min 620 W/m 3,2 km/h (1 Bft) 100,00 %
10.04.2020 11:00 16,9 C 23,3 C 19,4 C 67 % 1027,0 hPa 0,0 l/m 2 min 0 min 625 W/m 3,2 km/h (1 Bft) 100,00 %
10.04.2020 11:02 17,0 C 23,3 C 17,8 C 66 % 1027,0 hPa 0,0 l/m 2 min 0 min 628 W/m 0,0 km/h (0 Bft) 100,00 %
10.04.2020 11:04 17,1 C 23,3 C 17,2 C 66 % 1027,0 hPa 0,0 l/m 2 min 0 min 634 W/m 0,0 km/h (0 Bft) 100,00 %
10.04.2020 11:06 17,2 C 23,3 C 17,2 C 66 % 1027,0 hPa 0,0 l/m 2 min 0 min 640 W/m 6,4 km/h (2 Bft) 100,00 %
10.04.2020 11:08 17,3 C 23,3 C 16,7 C 65 % 1027,0 hPa 0,0 l/m 2 min 0 min 643 W/m 3,2 km/h (1 Bft) 100,00 %
10.04.2020 11:10 17,3 C 23,9 C 16,7 C 66 % 1027,0 hPa 0,0 l/m 2 min 0 min 648 W/m 3,2 km/h (1 Bft) 100,00 %
10.04.2020 11:12 17,5 C 24,4 C 16,1 C 66 % 1027,0 hPa 0,0 l/m 2 min 0 min 652 W/m 9,7 km/h (2 Bft) 100,00 %
10.04.2020 11:14 17,6 C 23,9 C 16,1 C 65 % 1027,0 hPa 0,0 l/m 2 min 0 min 655 W/m 9,7 km/h (2 Bft) 100,00 %
10.04.2020 11:16 17,7 C 23,9 C 16,1 C 65 % 1027,0 hPa 0,0 l/m 2 min 0 min 660 W/m 0,0 km/h (0 Bft) 100,00 %
10.04.2020 11:18 17,8 C 24,4 C 16,1 C 66 % 1027,0 hPa 0,0 l/m 2 min 0 min 666 W/m 3,2 km/h (1 Bft) 100,00 %
10.04.2020 11:20 17,8 C 23,9 C 16,1 C 64 % 1027,0 hPa 0,0 l/m 2 min 0 min 665 W/m 0,0 km/h (0 Bft) 100,00 %
10.04.2020 11:22 17,9 C 24,4 C 16,1 C 64 % 1027,0 hPa 0,0 l/m 2 min 0 min 670 W/m 3,2 km/h (1 Bft) 100,00 %
10.04.2020 11:24 18,0 C 23,9 C 16,1 C 64 % 1027,0 hPa 0,0 l/m 2 min 0 min 674 W/m 3,2 km/h (1 Bft) 100,00 %
10.04.2020 11:26 18,1 C 23,9 C 16,1 C 64 % 1027,0 hPa 0,0 l/m 2 min 0 min 677 W/m 3,2 km/h (1 Bft) 97,87 %
10.04.2020 11:28 18,1 C 24,4 C 16,1 C 64 % 1027,0 hPa 0,0 l/m 2 min 0 min 680 W/m 6,4 km/h (2 Bft) 100,00 %
10.04.2020 11:30 18,2 C 25,0 C 16,1 C 63 % 1027,0 hPa 0,0 l/m 2 min 0 min 682 W/m 6,4 km/h (2 Bft) 100,00 %
10.04.2020 11:32 18,3 C 25,0 C 16,7 C 64 % 1027,0 hPa 0,0 l/m 2 min 0 min 688 W/m 3,2 km/h (1 Bft) 97,87 %
10.04.2020 11:34 18,3 C 25,6 C 16,7 C 64 % 1027,0 hPa 0,0 l/m 2 min 0 min 690 W/m 6,4 km/h (2 Bft) 100,00 %
10.04.2020 11:36 18,4 C 25,6 C 16,7 C 63 % 1027,0 hPa 0,0 l/m 2 min 0 min 693 W/m 9,7 km/h (2 Bft) 100,00 %
10.04.2020 11:38 18,5 C 24,4 C 16,7 C 61 % 1027,0 hPa 0,0 l/m 2 min 0 min 698 W/m 9,7 km/h (2 Bft) 100,00 %
10.04.2020 11:40 18,6 C 24,4 C 16,7 C 62 % 1026,9 hPa 0,0 l/m 2 min 0 min 702 W/m 6,4 km/h (2 Bft) 100,00 %
10.04.2020 11:42 18,6 C 25,0 C 16,7 C 62 % 1026,9 hPa 0,0 l/m 2 min 0 min 705 W/m 6,4 km/h (2 Bft) 100,00 %
10.04.2020 11:44 18,7 C 25,6 C 16,7 C 63 % 1026,9 hPa 0,0 l/m 2 min 0 min 707 W/m 6,4 km/h (2 Bft) 100,00 %
10.04.2020 11:46 18,8 C 25,0 C 17,2 C 61 % 1026,9 hPa 0,0 l/m 2 min 0 min 707 W/m 0,0 km/h (0 Bft) 100,00 %
10.04.2020 11:48 18,9 C 25,6 C 16,7 C 62 % 1026,9 hPa 0,0 l/m 2 min 0 min 710 W/m 3,2 km/h (1 Bft) 100,00 %
10.04.2020 11:50 18,9 C 25,6 C 17,2 C 63 % 1026,9 hPa 0,0 l/m 2 min 0 min 716 W/m 6,4 km/h (2 Bft) 100,00 %
10.04.2020 11:52 19,1 C 26,1 C 17,2 C 61 % 1026,9 hPa 0,0 l/m 2 min 0 min 722 W/m 6,4 km/h (2 Bft) 100,00 %
10.04.2020 11:54 19,1 C 26,1 C 17,2 C 62 % 1026,9 hPa 0,0 l/m 2 min 0 min 729 W/m 6,4 km/h (2 Bft) 100,00 %
10.04.2020 11:56 19,2 C 25,6 C 17,2 C 61 % 1026,9 hPa 0,0 l/m 2 min 0 min 729 W/m 6,4 km/h (2 Bft) 100,00 %
10.04.2020 11:58 19,3 C 26,1 C 17,2 C 61 % 1026,9 hPa 0,0 l/m 2 min 0 min 732 W/m 9,7 km/h (2 Bft) 100,00 %
10.04.2020 12:00 19,4 C 26,1 C 17,2 C 61 % 1026,9 hPa 0,0 l/m 2 min 0 min 734 W/m 16,1 km/h (3 Bft) 100,00 %
10.04.2020 12:02 19,4 C 25,6 C 17,2 C 60 % 1026,9 hPa 0,0 l/m 2 min 0 min 739 W/m 9,7 km/h (2 Bft) 100,00 %
10.04.2020 12:04 19,5 C 26,1 C 17,2 C 58 % 1026,8 hPa 0,0 l/m 2 min 0 min 739 W/m 16,1 km/h (3 Bft) 100,00 %
10.04.2020 12:08 19,7 C 26,7 C 17,8 C 59 % 1026,8 hPa 0,0 l/m 4 min 0 min 748 W/m 9,7 km/h (2 Bft) 100,00 %
10.04.2020 12:10 19,8 C 26,7 C 17,8 C 59 % 1026,8 hPa 0,0 l/m 2 min 0 min 749 W/m 3,2 km/h (1 Bft) 95,74 %
10.04.2020 12:12 19,8 C 26,1 C 17,8 C 58 % 1026,8 hPa 0,0 l/m 2 min 0 min 755 W/m 9,7 km/h (2 Bft) 100,00 %
10.04.2020 12:14 19,9 C 26,1 C 17,8 C 58 % 1026,8 hPa 0,0 l/m 2 min 0 min 757 W/m 6,4 km/h (2 Bft) 97,87 %
10.04.2020 12:16 19,9 C 26,7 C 17,8 C 59 % 1026,8 hPa 0,0 l/m 2 min 0 min 760 W/m 3,2 km/h (1 Bft) 97,83 %
10.04.2020 12:18 20,1 C 26,7 C 17,8 C 58 % 1026,8 hPa 0,0 l/m 2 min 0 min 760 W/m 9,7 km/h (2 Bft) 100,00 %
10.04.2020 12:20 20,1 C 26,1 C 17,8 C 57 % 1026,8 hPa 0,0 l/m 2 min 0 min 759 W/m 9,7 km/h (2 Bft) 95,74 %
10.04.2020 12:22 20,1 C 26,1 C 18,3 C 57 % 1026,7 hPa 0,0 l/m 2 min 0 min 761 W/m 9,7 km/h (2 Bft) 95,74 %
10.04.2020 12:24 20,2 C 26,1 C 18,3 C 58 % 1026,7 hPa 0,0 l/m 2 min 0 min 763 W/m 19,3 km/h (3 Bft) 97,87 %
10.04.2020 12:26 20,3 C 26,7 C 18,3 C 58 % 1026,7 hPa 0,0 l/m 2 min 0 min 772 W/m 9,7 km/h (2 Bft) 95,65 %
10.04.2020 12:28 20,3 C 26,7 C 18,3 C 58 % 1026,7 hPa 0,0 l/m 2 min 0 min 769 W/m 3,2 km/h (1 Bft) 97,87 %
10.04.2020 12:30 20,4 C 26,7 C 18,3 C 57 % 1026,7 hPa 0,0 l/m 2 min 0 min 777 W/m 9,7 km/h (2 Bft) 93,62 %
10.04.2020 12:32 20,4 C 27,2 C 18,3 C 57 % 1026,7 hPa 0,0 l/m 2 min 0 min 780 W/m 16,1 km/h (3 Bft) 97,87 %
10.04.2020 12:34 20,6 C 26,7 C 18,3 C 55 % 1026,6 hPa 0,0 l/m 2 min 0 min 786 W/m 12,9 km/h (3 Bft) 93,62 %
10.04.2020 12:36 20,6 C 26,7 C 18,9 C 57 % 1026,7 hPa 0,0 l/m 2 min 0 min 783 W/m 6,4 km/h (2 Bft) 95,74 %
10.04.2020 12:38 20,7 C 27,8 C 18,9 C 57 % 1026,7 hPa 0,0 l/m 2 min 0 min 788 W/m 6,4 km/h (2 Bft) 95,74 %
10.04.2020 12:40 20,8 C 27,2 C 18,9 C 57 % 1026,6 hPa 0,0 l/m 2 min 0 min 794 W/m 3,2 km/h (1 Bft) 93,48 %
10.04.2020 12:42 20,9 C 27,2 C 18,9 C 55 % 1026,7 hPa 0,0 l/m 2 min 0 min 793 W/m 6,4 km/h (2 Bft) 95,74 %
10.04.2020 12:44 20,9 C 27,2 C 18,9 C 54 % 1026,6 hPa 0,0 l/m 2 min 0 min 805 W/m 6,4 km/h (2 Bft) 95,74 %
10.04.2020 12:46 20,9 C 26,7 C 18,9 C 53 % 1026,6 hPa 0,0 l/m 2 min 0 min 803 W/m 12,9 km/h (3 Bft) 95,74 %
10.04.2020 12:48 20,9 C 26,7 C 19,4 C 54 % 1026,6 hPa 0,0 l/m 2 min 0 min 796 W/m 12,9 km/h (3 Bft) 91,49 %
10.04.2020 12:50 20,9 C 26,7 C 19,4 C 53 % 1026,6 hPa 0,0 l/m 2 min 0 min 795 W/m 6,4 km/h (2 Bft) 93,48 %
10.04.2020 12:52 21,0 C 26,7 C 19,4 C 53 % 1026,6 hPa 0,0 l/m 2 min 0 min 798 W/m 3,2 km/h (1 Bft) 95,74 %
10.04.2020 12:54 21,0 C 26,7 C 19,4 C 53 % 1026,6 hPa 0,0 l/m 2 min 0 min 809 W/m 9,7 km/h (2 Bft) 95,74 %
10.04.2020 12:56 21,1 C 26,7 C 20,0 C 52 % 1026,6 hPa 0,0 l/m 2 min 0 min 803 W/m 12,9 km/h (3 Bft) 95,74 %
10.04.2020 12:58 21,1 C 26,7 C 20,0 C 51 % 1026,6 hPa 0,0 l/m 2 min 0 min 798 W/m 12,9 km/h (3 Bft) 93,62 %
10.04.2020 13:00 21,1 C 26,7 C 20,0 C 51 % 1026,6 hPa 0,0 l/m 2 min 0 min 800 W/m 9,7 km/h (2 Bft) 95,74 %
10.04.2020 13:02 21,1 C 26,7 C 20,0 C 51 % 1026,6 hPa 0,0 l/m 2 min 0 min 805 W/m 6,4 km/h (2 Bft) 93,48 %
10.04.2020 13:04 21,1 C 26,7 C 20,0 C 50 % 1026,6 hPa 0,0 l/m 2 min 0 min 822 W/m 9,7 km/h (2 Bft) 95,74 %
10.04.2020 13:06 21,1 C 26,7 C 20,0 C 51 % 1026,5 hPa 0,0 l/m 2 min 0 min 821 W/m 6,4 km/h (2 Bft) 89,36 %
10.04.2020 13:08 21,2 C 27,2 C 20,0 C 51 % 1026,6 hPa 0,0 l/m 2 min 0 min 816 W/m 12,9 km/h (3 Bft) 93,62 %
10.04.2020 13:10 21,2 C 26,7 C 20,6 C 52 % 1026,5 hPa 0,0 l/m 2 min 0 min 815 W/m 12,9 km/h (3 Bft) 91,49 %
10.04.2020 13:12 21,3 C 27,8 C 20,0 C 53 % 1026,5 hPa 0,0 l/m 2 min 0 min 810 W/m 9,7 km/h (2 Bft) 95,74 %
10.04.2020 13:14 21,3 C 27,2 C 20,6 C 51 % 1026,5 hPa 0,0 l/m 2 min 0 min 812 W/m 9,7 km/h (2 Bft) 95,65 %
10.04.2020 13:16 21,4 C 26,7 C 20,6 C 51 % 1026,5 hPa 0,0 l/m 2 min 0 min 813 W/m 9,7 km/h (2 Bft) 95,74 %
10.04.2020 13:18 21,4 C 27,2 C 20,6 C 52 % 1026,5 hPa 0,0 l/m 2 min 0 min 810 W/m 6,4 km/h (2 Bft) 95,74 %
10.04.2020 13:20 21,4 C 27,2 C 20,6 C 52 % 1026,5 hPa 0,0 l/m 2 min 0 min 809 W/m 9,7 km/h (2 Bft) 97,87 %
10.04.2020 13:22 21,4 C 26,7 C 20,6 C 51 % 1026,5 hPa 0,0 l/m 2 min 0 min 808 W/m 9,7 km/h (2 Bft) 95,74 %
10.04.2020 13:24 21,4 C 26,7 C 20,6 C 51 % 1026,5 hPa 0,0 l/m 2 min 0 min 808 W/m 19,3 km/h (3 Bft) 95,65 %
10.04.2020 13:26 21,5 C 27,2 C 20,6 C 52 % 1026,5 hPa 0,0 l/m 2 min 0 min 794 W/m 0,0 km/h (0 Bft) 93,62 %
10.04.2020 13:28 21,6 C 27,2 C 21,1 C 52 % 1026,5 hPa 0,0 l/m 2 min 0 min 814 W/m 12,9 km/h (3 Bft) 97,87 %
10.04.2020 13:30 21,6 C 27,2 C 21,1 C 51 % 1026,4 hPa 0,0 l/m 2 min 0 min 814 W/m 12,9 km/h (3 Bft) 97,87 %
10.04.2020 13:32 21,6 C 28,3 C 20,6 C 52 % 1026,5 hPa 0,0 l/m 2 min 0 min 814 W/m 6,4 km/h (2 Bft) 97,87 %
10.04.2020 13:34 21,7 C 27,8 C 21,1 C 51 % 1026,4 hPa 0,0 l/m 2 min 0 min 818 W/m 6,4 km/h (2 Bft) 97,87 %
10.04.2020 13:36 21,7 C 27,2 C 21,7 C 51 % 1026,4 hPa 0,0 l/m 2 min 0 min 821 W/m 16,1 km/h (3 Bft) 97,83 %
10.04.2020 13:38 21,7 C 27,2 C 22,2 C 50 % 1026,4 hPa 0,0 l/m 2 min 0 min 822 W/m 9,7 km/h (2 Bft) 97,87 %
10.04.2020 13:40 21,8 C 26,7 C 22,2 C 49 % 1026,4 hPa 0,0 l/m 2 min 0 min 818 W/m 9,7 km/h (2 Bft) 95,74 %
10.04.2020 13:42 21,8 C 27,2 C 24,4 C 50 % 1026,3 hPa 0,0 l/m 2 min 0 min 817 W/m 12,9 km/h (3 Bft) 97,87 %
10.04.2020 13:44 21,8 C 27,2 C 26,7 C 50 % 1026,3 hPa 0,0 l/m 2 min 0 min 820 W/m 9,7 km/h (2 Bft) 97,87 %
10.04.2020 13:46 21,8 C 27,2 C 27,2 C 49 % 1026,3 hPa 0,0 l/m 2 min 0 min 819 W/m 6,4 km/h (2 Bft) 97,87 %
10.04.2020 13:48 21,7 C 26,7 C 27,8 C 48 % 1026,3 hPa 0,0 l/m 2 min 0 min 817 W/m 9,7 km/h (2 Bft) 95,65 %
10.04.2020 13:50 21,7 C 26,7 C 28,3 C 49 % 1026,3 hPa 0,0 l/m 2 min 0 min 817 W/m 6,4 km/h (2 Bft) 97,87 %
10.04.2020 13:52 21,7 C 26,1 C 28,3 C 48 % 1026,3 hPa 0,0 l/m 2 min 0 min 813 W/m 12,9 km/h (3 Bft) 93,62 %
10.04.2020 13:54 21,7 C 26,7 C 28,9 C 50 % 1026,2 hPa 0,0 l/m 2 min 0 min 805 W/m 6,4 km/h (2 Bft) 97,87 %
10.04.2020 13:56 21,7 C 27,8 C 30,0 C 51 % 1026,3 hPa 0,0 l/m 2 min 0 min 799 W/m 12,9 km/h (3 Bft) 97,87 %
10.04.2020 13:58 21,7 C 27,8 C 30,0 C 51 % 1026,2 hPa 0,0 l/m 2 min 0 min 801 W/m 9,7 km/h (2 Bft) 97,87 %
10.04.2020 14:00 21,8 C 27,8 C 30,0 C 50 % 1026,2 hPa 0,0 l/m 2 min 0 min 802 W/m 6,4 km/h (2 Bft) 97,83 %
10.04.2020 14:02 21,8 C 28,3 C 31,1 C 51 % 1026,2 hPa 0,0 l/m 2 min 0 min 798 W/m 9,7 km/h (2 Bft) 97,87 %
10.04.2020 14:04 21,9 C 28,9 C 30,6 C 52 % 1026,1 hPa 0,0 l/m 2 min 0 min 798 W/m 6,4 km/h (2 Bft) 97,87 %
10.04.2020 14:06 22,1 C 28,3 C 30,6 C 51 % 1026,2 hPa 0,0 l/m 2 min 0 min 803 W/m 9,7 km/h (2 Bft) 97,87 %
10.04.2020 14:08 22,1 C 27,8 C 30,6 C 51 % 1026,1 hPa 0,0 l/m 2 min 0 min 802 W/m 16,1 km/h (3 Bft) 97,87 %
10.04.2020 14:10 22,1 C 27,2 C 30,6 C 49 % 1026,1 hPa 0,0 l/m 2 min 0 min 804 W/m 6,4 km/h (2 Bft) 97,87 %
10.04.2020 14:12 22,2 C 27,8 C 31,1 C 51 % 1026,1 hPa 0,0 l/m 2 min 0 min 807 W/m 3,2 km/h (1 Bft) 97,83 %
10.04.2020 14:14 22,2 C 27,8 C 30,6 C 49 % 1026,1 hPa 0,0 l/m 2 min 0 min 802 W/m 6,4 km/h (2 Bft) 100,00 %
10.04.2020 14:16 22,2 C 27,2 C 29,4 C 48 % 1026,1 hPa 0,0 l/m 2 min 0 min 792 W/m 12,9 km/h (3 Bft) 100,00 %
10.04.2020 14:18 22,2 C 27,2 C 30,0 C 51 % 1026,1 hPa 0,0 l/m 2 min 0 min 798 W/m 16,1 km/h (3 Bft) 100,00 %
10.04.2020 14:20 22,2 C 27,8 C 30,6 C 50 % 1026,0 hPa 0,0 l/m 2 min 0 min 799 W/m 22,5 km/h (4 Bft) 100,00 %
10.04.2020 14:22 22,3 C 27,8 C 30,6 C 49 % 1026,1 hPa 0,0 l/m 2 min 0 min 800 W/m 6,4 km/h (2 Bft) 100,00 %
10.04.2020 14:24 22,3 C 28,3 C 31,1 C 50 % 1026,0 hPa 0,0 l/m 2 min 0 min 797 W/m 9,7 km/h (2 Bft) 97,83 %
10.04.2020 14:26 22,3 C 28,9 C 31,1 C 50 % 1026,0 hPa 0,0 l/m 2 min 0 min 798 W/m 16,1 km/h (3 Bft) 100,00 %
10.04.2020 14:28 22,4 C 28,3 C 31,1 C 50 % 1026,0 hPa 0,0 l/m 2 min 0 min 798 W/m 22,5 km/h (4 Bft) 100,00 %
10.04.2020 14:30 22,4 C 27,8 C 30,6 C 50 % 1025,9 hPa 0,0 l/m 2 min 0 min 802 W/m 16,1 km/h (3 Bft) 100,00 %
10.04.2020 14:32 22,4 C 27,8 C 30,0 C 49 % 1025,9 hPa 0,0 l/m 2 min 0 min 793 W/m 9,7 km/h (2 Bft) 100,00 %
10.04.2020 14:34 22,4 C 27,8 C 28,9 C 49 % 1025,8 hPa 0,0 l/m 2 min 0 min 791 W/m 12,9 km/h (3 Bft) 100,00 %
10.04.2020 14:36 22,4 C 27,2 C 26,1 C 49 % 1025,8 hPa 0,0 l/m 2 min 0 min 791 W/m 16,1 km/h (3 Bft) 100,00 %
10.04.2020 14:38 22,4 C 27,2 C 24,4 C 49 % 1025,8 hPa 0,0 l/m 2 min 0 min 794 W/m 12,9 km/h (3 Bft) 100,00 %
10.04.2020 14:40 22,4 C 27,8 C 23,3 C 48 % 1025,8 hPa 0,0 l/m 2 min 0 min 796 W/m 6,4 km/h (2 Bft) 97,87 %
10.04.2020 14:42 22,4 C 28,3 C 23,3 C 50 % 1025,8 hPa 0,0 l/m 2 min 0 min 789 W/m 6,4 km/h (2 Bft) 100,00 %
10.04.2020 14:44 22,5 C 28,9 C 22,8 C 49 % 1025,8 hPa 0,0 l/m 2 min 0 min 795 W/m 3,2 km/h (1 Bft) 100,00 %
10.04.2020 14:46 22,6 C 28,3 C 22,8 C 50 % 1025,7 hPa 0,0 l/m 2 min 0 min 777 W/m 12,9 km/h (3 Bft) 95,65 %
10.04.2020 14:48 22,6 C 27,8 C 22,2 C 50 % 1025,7 hPa 0,0 l/m 2 min 0 min 784 W/m 16,1 km/h (3 Bft) 100,00 %
10.04.2020 14:50 22,6 C 27,2 C 22,2 C 49 % 1025,7 hPa 0,0 l/m 2 min 0 min 785 W/m 16,1 km/h (3 Bft) 100,00 %
10.04.2020 14:52 22,7 C 27,8 C 22,2 C 50 % 1025,7 hPa 0,0 l/m 2 min 0 min 781 W/m 12,9 km/h (3 Bft) 100,00 %
10.04.2020 14:54 22,7 C 27,8 C 21,7 C 50 % 1025,7 hPa 0,0 l/m 2 min 0 min 780 W/m 3,2 km/h (1 Bft) 100,00 %
10.04.2020 14:56 22,7 C 28,3 C 21,7 C 48 % 1025,6 hPa 0,0 l/m 2 min 0 min 783 W/m 6,4 km/h (2 Bft) 100,00 %
10.04.2020 14:58 22,7 C 27,8 C 21,7 C 48 % 1025,6 hPa 0,0 l/m 2 min 0 min 778 W/m 9,7 km/h (2 Bft) 100,00 %
10.04.2020 15:00 22,7 C 27,2 C 22,2 C 48 % 1025,7 hPa 0,0 l/m 2 min 0 min 777 W/m 25,7 km/h (4 Bft) 100,00 %
10.04.2020 15:02 22,7 C 27,8 C 22,2 C 50 % 1025,6 hPa 0,0 l/m 2 min 0 min 778 W/m 12,9 km/h (3 Bft) 100,00 %
10.04.2020 15:04 22,7 C 27,2 C 21,7 C 49 % 1025,6 hPa 0,0 l/m 2 min 0 min 773 W/m 12,9 km/h (3 Bft) 100,00 %
10.04.2020 15:06 22,7 C 27,8 C 21,7 C 48 % 1025,6 hPa 0,0 l/m 2 min 0 min 768 W/m 12,9 km/h (3 Bft) 97,87 %
10.04.2020 15:08 22,7 C 28,3 C 22,2 C 49 % 1025,5 hPa 0,0 l/m 2 min 0 min 770 W/m 9,7 km/h (2 Bft) 97,87 %
10.04.2020 15:10 22,7 C 27,2 C 22,2 C 48 % 1025,5 hPa 0,0 l/m 2 min 0 min 768 W/m 19,3 km/h (3 Bft) 100,00 %
10.04.2020 15:12 22,7 C 27,2 C 21,7 C 48 % 1025,5 hPa 0,0 l/m 2 min 0 min 763 W/m 9,7 km/h (2 Bft) 97,87 %
10.04.2020 15:14 22,7 C 27,2 C 22,2 C 48 % 1025,5 hPa 0,0 l/m 2 min 0 min 747 W/m 16,1 km/h (3 Bft) 97,87 %
10.04.2020 15:16 22,7 C 27,8 C 21,7 C 48 % 1025,4 hPa 0,0 l/m 2 min 0 min 746 W/m 6,4 km/h (2 Bft) 97,87 %
10.04.2020 15:18 22,7 C 27,2 C 21,7 C 50 % 1025,4 hPa 0,0 l/m 2 min 0 min 747 W/m 3,2 km/h (1 Bft) 97,87 %
10.04.2020 15:20 22,7 C 26,7 C 21,7 C 47 % 1025,4 hPa 0,0 l/m 2 min 0 min 748 W/m 12,9 km/h (3 Bft) 97,87 %
10.04.2020 15:22 22,6 C 26,7 C 21,7 C 47 % 1025,4 hPa 0,0 l/m 2 min 0 min 745 W/m 12,9 km/h (3 Bft) 97,83 %
10.04.2020 15:24 22,6 C 26,7 C 21,7 C 48 % 1025,4 hPa 0,0 l/m 2 min 0 min 742 W/m 12,9 km/h (3 Bft) 93,62 %
10.04.2020 15:26 22,6 C 27,2 C 22,2 C 50 % 1025,4 hPa 0,0 l/m 2 min 0 min 737 W/m 6,4 km/h (2 Bft) 97,87 %
10.04.2020 15:28 22,6 C 26,7 C 22,2 C 48 % 1025,4 hPa 0,0 l/m 2 min 0 min 730 W/m 9,7 km/h (2 Bft) 97,87 %
10.04.2020 15:30 22,6 C 27,2 C 22,2 C 49 % 1025,4 hPa 0,0 l/m 2 min 0 min 732 W/m 19,3 km/h (3 Bft) 97,87 %
10.04.2020 15:32 22,6 C 26,7 C 22,2 C 48 % 1025,4 hPa 0,0 l/m 2 min 0 min 729 W/m 9,7 km/h (2 Bft) 95,74 %
10.04.2020 15:34 22,5 C 26,7 C 21,7 C 47 % 1025,4 hPa 0,0 l/m 2 min 0 min 730 W/m 3,2 km/h (1 Bft) 95,65 %
10.04.2020 15:36 22,5 C 27,2 C 21,7 C 49 % 1025,4 hPa 0,0 l/m 2 min 0 min 706 W/m 9,7 km/h (2 Bft) 95,74 %
10.04.2020 15:38 22,5 C 27,2 C 21,7 C 48 % 1025,4 hPa 0,0 l/m 2 min 0 min 697 W/m 19,3 km/h (3 Bft) 97,87 %
10.04.2020 15:40 22,5 C 26,7 C 21,7 C 48 % 1025,3 hPa 0,0 l/m 2 min 0 min 612 W/m 9,7 km/h (2 Bft) 95,74 %
10.04.2020 15:42 22,5 C 26,7 C 21,7 C 49 % 1025,4 hPa 0,0 l/m 2 min 0 min 649 W/m 3,2 km/h (1 Bft) 93,62 %
10.04.2020 15:44 22,5 C 26,1 C 21,7 C 48 % 1025,3 hPa 0,0 l/m 2 min 0 min 711 W/m 9,7 km/h (2 Bft) 95,65 %
10.04.2020 15:46 22,5 C 26,7 C 22,2 C 49 % 1025,3 hPa 0,0 l/m 2 min 0 min 709 W/m 12,9 km/h (3 Bft) 95,74 %
10.04.2020 15:48 22,6 C 27,2 C 22,2 C 50 % 1025,3 hPa 0,0 l/m 2 min 0 min 703 W/m 16,1 km/h (3 Bft) 95,74 %
10.04.2020 15:50 22,6 C 27,2 C 22,2 C 49 % 1025,3 hPa 0,0 l/m 2 min 0 min 606 W/m 16,1 km/h (3 Bft) 95,74 %
10.04.2020 15:52 22,6 C 27,2 C 22,2 C 49 % 1025,2 hPa 0,0 l/m 2 min 0 min 673 W/m 16,1 km/h (3 Bft) 97,87 %
10.04.2020 15:54 22,7 C 26,7 C 22,2 C 48 % 1025,2 hPa 0,0 l/m 2 min 0 min 611 W/m 16,1 km/h (3 Bft) 97,87 %
10.04.2020 15:56 22,7 C 26,1 C 21,7 C 48 % 1025,2 hPa 0,0 l/m 2 min 0 min 490 W/m 19,3 km/h (3 Bft) 97,83 %
10.04.2020 15:58 22,7 C 26,1 C 21,7 C 49 % 1025,2 hPa 0,0 l/m 2 min 0 min 440 W/m 9,7 km/h (2 Bft) 97,87 %
10.04.2020 16:00 22,7 C 26,1 C 21,7 C 48 % 1025,2 hPa 0,0 l/m 2 min 0 min 556 W/m 12,9 km/h (3 Bft) 97,87 %
10.04.2020 16:02 22,7 C 25,6 C 21,7 C 47 % 1025,2 hPa 0,0 l/m 2 min 0 min 592 W/m 19,3 km/h (3 Bft) 95,74 %
10.04.2020 16:04 22,6 C 25,6 C 21,7 C 47 % 1025,2 hPa 0,0 l/m 2 min 0 min 539 W/m 32,2 km/h (5 Bft) 97,87 %
10.04.2020 16:06 22,6 C 26,1 C 21,7 C 48 % 1025,1 hPa 0,0 l/m 2 min 0 min 642 W/m 9,7 km/h (2 Bft) 97,87 %
10.04.2020 16:08 22,6 C 26,1 C 21,7 C 47 % 1025,1 hPa 0,0 l/m 2 min 0 min 644 W/m 9,7 km/h (2 Bft) 97,83 %
10.04.2020 16:10 22,6 C 26,1 C 21,7 C 46 % 1025,1 hPa 0,0 l/m 2 min 0 min 663 W/m 9,7 km/h (2 Bft) 97,87 %
10.04.2020 16:12 22,6 C 26,7 C 22,2 C 47 % 1025,1 hPa 0,0 l/m 2 min 0 min 649 W/m 9,7 km/h (2 Bft) 95,74 %
10.04.2020 16:14 22,7 C 27,2 C 23,3 C 47 % 1025,0 hPa 0,0 l/m 2 min 0 min 649 W/m 6,4 km/h (2 Bft) 97,87 %
10.04.2020 16:16 22,7 C 27,2 C 24,4 C 47 % 1025,0 hPa 0,0 l/m 2 min 0 min 650 W/m 12,9 km/h (3 Bft) 97,87 %
10.04.2020 16:18 22,7 C 27,2 C 25,6 C 47 % 1025,0 hPa 0,0 l/m 2 min 0 min 651 W/m 12,9 km/h (3 Bft) 97,87 %
10.04.2020 16:20 22,7 C 27,2 C 26,1 C 47 % 1025,0 hPa 0,0 l/m 2 min 0 min 645 W/m 12,9 km/h (3 Bft) 97,83 %
10.04.2020 16:22 22,8 C 27,2 C 26,1 C 48 % 1025,0 hPa 0,0 l/m 2 min 0 min 638 W/m 9,7 km/h (2 Bft) 95,74 %
10.04.2020 16:24 22,8 C 26,7 C 25,6 C 47 % 1024,9 hPa 0,0 l/m 2 min 0 min 633 W/m 12,9 km/h (3 Bft) 97,87 %
10.04.2020 16:26 22,8 C 26,7 C 25,0 C 46 % 1024,9 hPa 0,0 l/m 2 min 0 min 625 W/m 12,9 km/h (3 Bft) 97,87 %
10.04.2020 16:28 22,8 C 26,7 C 24,4 C 47 % 1024,9 hPa 0,0 l/m 2 min 0 min 617 W/m 9,7 km/h (2 Bft) 100,00 %
10.04.2020 16:30 22,8 C 27,2 C 23,9 C 48 % 1024,8 hPa 0,0 l/m 2 min 0 min 614 W/m 12,9 km/h (3 Bft) 95,74 %
10.04.2020 16:32 22,9 C 27,2 C 23,3 C 47 % 1024,9 hPa 0,0 l/m 2 min 0 min 609 W/m 9,7 km/h (2 Bft) 97,83 %
10.04.2020 16:34 22,9 C 26,7 C 23,3 C 46 % 1024,8 hPa 0,0 l/m 2 min 0 min 608 W/m 12,9 km/h (3 Bft) 97,92 %
10.04.2020 16:36 22,8 C 26,1 C 22,8 C 46 % 1024,8 hPa 0,0 l/m 2 min 0 min 594 W/m 16,1 km/h (3 Bft) 97,87 %
10.04.2020 16:38 22,8 C 26,1 C 22,8 C 47 % 1024,8 hPa 0,0 l/m 2 min 0 min 590 W/m 12,9 km/h (3 Bft) 95,74 %
10.04.2020 16:40 22,8 C 26,7 C 22,2 C 46 % 1024,8 hPa 0,0 l/m 2 min 0 min 586 W/m 16,1 km/h (3 Bft) 97,87 %
10.04.2020 16:42 22,8 C 25,6 C 21,7 C 45 % 1024,8 hPa 0,0 l/m 2 min 0 min 584 W/m 25,7 km/h (4 Bft) 97,83 %
10.04.2020 16:44 22,8 C 26,1 C 21,7 C 47 % 1024,7 hPa 0,0 l/m 2 min 0 min 578 W/m 9,7 km/h (2 Bft) 97,87 %
10.04.2020 16:46 22,8 C 26,1 C 22,2 C 46 % 1024,7 hPa 0,0 l/m 2 min 0 min 573 W/m 12,9 km/h (3 Bft) 97,87 %
10.04.2020 16:48 22,8 C 26,1 C 22,2 C 46 % 1024,7 hPa 0,0 l/m 2 min 0 min 568 W/m 9,7 km/h (2 Bft) 97,87 %
10.04.2020 16:50 22,8 C 26,1 C 22,8 C 46 % 1024,7 hPa 0,0 l/m 2 min 0 min 564 W/m 9,7 km/h (2 Bft) 95,74 %
10.04.2020 16:52 22,8 C 26,1 C 24,4 C 47 % 1024,7 hPa 0,0 l/m 2 min 0 min 555 W/m 9,7 km/h (2 Bft) 95,74 %
10.04.2020 16:54 22,8 C 26,7 C 25,6 C 48 % 1024,7 hPa 0,0 l/m 2 min 0 min 547 W/m 9,7 km/h (2 Bft) 97,83 %
10.04.2020 16:56 22,8 C 26,7 C 26,1 C 47 % 1024,7 hPa 0,0 l/m 2 min 0 min 539 W/m 19,3 km/h (3 Bft) 97,87 %
10.04.2020 16:58 22,8 C 26,1 C 26,7 C 47 % 1024,7 hPa 0,0 l/m 2 min 0 min 534 W/m 16,1 km/h (3 Bft) 97,87 %
10.04.2020 17:00 22,8 C 25,6 C 26,1 C 46 % 1024,7 hPa 0,0 l/m 2 min 0 min 531 W/m 12,9 km/h (3 Bft) 97,87 %
10.04.2020 17:02 22,7 C 25,0 C 25,6 C 45 % 1024,7 hPa 0,0 l/m 2 min 0 min 530 W/m 12,9 km/h (3 Bft) 95,74 %
10.04.2020 17:04 22,7 C 26,1 C 25,6 C 46 % 1024,7 hPa 0,0 l/m 2 min 0 min 527 W/m 12,9 km/h (3 Bft) 97,87 %
10.04.2020 17:06 22,7 C 26,1 C 26,1 C 46 % 1024,7 hPa 0,0 l/m 2 min 0 min 521 W/m 6,4 km/h (2 Bft) 97,83 %
10.04.2020 17:08 22,7 C 26,1 C 26,7 C 46 % 1024,6 hPa 0,0 l/m 2 min 0 min 514 W/m 6,4 km/h (2 Bft) 97,87 %
10.04.2020 17:10 22,7 C 26,1 C 26,7 C 45 % 1024,6 hPa 0,0 l/m 2 min 0 min 506 W/m 6,4 km/h (2 Bft) 95,74 %
10.04.2020 17:12 22,7 C 26,1 C 27,2 C 47 % 1024,6 hPa 0,0 l/m 2 min 0 min 503 W/m 6,4 km/h (2 Bft) 95,74 %
10.04.2020 17:14 22,7 C 26,1 C 27,2 C 46 % 1024,5 hPa 0,0 l/m 2 min 0 min 498 W/m 16,1 km/h (3 Bft) 97,87 %
10.04.2020 17:16 22,7 C 25,6 C 26,7 C 46 % 1024,6 hPa 0,0 l/m 2 min 0 min 495 W/m 9,7 km/h (2 Bft) 97,87 %
10.04.2020 17:18 22,7 C 25,6 C 26,1 C 46 % 1024,5 hPa 0,0 l/m 2 min 0 min 490 W/m 12,9 km/h (3 Bft) 97,83 %
10.04.2020 17:20 22,7 C 26,1 C 27,2 C 47 % 1024,6 hPa 0,0 l/m 2 min 0 min 482 W/m 9,7 km/h (2 Bft) 97,87 %
10.04.2020 17:22 22,7 C 25,6 C 27,2 C 46 % 1024,5 hPa 0,0 l/m 2 min 0 min 475 W/m 9,7 km/h (2 Bft) 100,00 %
10.04.2020 17:24 22,7 C 25,6 C 27,2 C 47 % 1024,5 hPa 0,0 l/m 2 min 0 min 470 W/m 6,4 km/h (2 Bft) 100,00 %
10.04.2020 17:26 22,7 C 26,1 C 26,7 C 47 % 1024,5 hPa 0,0 l/m 2 min 0 min 468 W/m 6,4 km/h (2 Bft) 100,00 %
10.04.2020 17:28 22,7 C 25,6 C 24,4 C 47 % 1024,4 hPa 0,0 l/m 2 min 0 min 462 W/m 12,9 km/h (3 Bft) 100,00 %
10.04.2020 17:30 22,7 C 26,1 C 23,3 C 48 % 1024,5 hPa 0,0 l/m 2 min 0 min 457 W/m 9,7 km/h (2 Bft) 100,00 %
10.04.2020 17:32 22,7 C 25,6 C 21,7 C 47 % 1024,5 hPa 0,0 l/m 2 min 0 min 453 W/m 12,9 km/h (3 Bft) 97,87 %
10.04.2020 17:34 22,7 C 25,0 C 21,1 C 47 % 1024,5 hPa 0,0 l/m 2 min 0 min 446 W/m 12,9 km/h (3 Bft) 100,00 %
10.04.2020 17:36 22,7 C 25,0 C 20,6 C 47 % 1024,5 hPa 0,0 l/m 2 min 0 min 439 W/m 9,7 km/h (2 Bft) 100,00 %
10.04.2020 17:38 22,6 C 25,0 C 20,0 C 48 % 1024,5 hPa 0,0 l/m 2 min 0 min 433 W/m 6,4 km/h (2 Bft) 100,00 %
10.04.2020 17:40 22,6 C 24,4 C 19,4 C 48 % 1024,5 hPa 0,0 l/m 2 min 0 min 423 W/m 12,9 km/h (3 Bft) 100,00 %
10.04.2020 17:42 22,5 C 25,0 C 19,4 C 48 % 1024,5 hPa 0,0 l/m 2 min 0 min 411 W/m 6,4 km/h (2 Bft) 95,65 %
10.04.2020 17:44 22,5 C 25,0 C 19,4 C 48 % 1024,5 hPa 0,0 l/m 2 min 0 min 406 W/m 16,1 km/h (3 Bft) 97,87 %
10.04.2020 17:46 22,4 C 24,4 C 18,9 C 47 % 1024,5 hPa 0,0 l/m 2 min 0 min 391 W/m 16,1 km/h (3 Bft) 97,87 %
10.04.2020 17:48 22,3 C 23,9 C 18,9 C 47 % 1024,5 hPa 0,0 l/m 2 min 0 min 390 W/m 9,7 km/h (2 Bft) 97,87 %
10.04.2020 17:50 22,3 C 23,3 C 18,9 C 47 % 1024,6 hPa 0,0 l/m 2 min 0 min 364 W/m 9,7 km/h (2 Bft) 97,87 %
10.04.2020 17:52 22,2 C 23,3 C 18,9 C 48 % 1024,5 hPa 0,0 l/m 2 min 0 min 332 W/m 12,9 km/h (3 Bft) 97,87 %
10.04.2020 17:54 22,1 C 23,3 C 18,3 C 48 % 1024,5 hPa 0,0 l/m 2 min 0 min 324 W/m 3,2 km/h (1 Bft) 97,83 %
10.04.2020 17:56 22,1 C 23,3 C 18,3 C 49 % 1024,6 hPa 0,0 l/m 2 min 0 min 324 W/m 22,5 km/h (4 Bft) 97,87 %
10.04.2020 17:58 21,9 C 22,8 C 18,3 C 48 % 1024,5 hPa 0,0 l/m 2 min 0 min 313 W/m 16,1 km/h (3 Bft) 97,87 %
10.04.2020 18:00 21,8 C 22,8 C 18,3 C 48 % 1024,5 hPa 0,0 l/m 2 min 0 min 314 W/m 6,4 km/h (2 Bft) 95,74 %
10.04.2020 18:02 21,7 C 22,2 C 17,8 C 48 % 1024,4 hPa 0,0 l/m 2 min 0 min 276 W/m 6,4 km/h (2 Bft) 97,87 %
10.04.2020 18:04 21,6 C 22,8 C 17,8 C 49 % 1024,4 hPa 0,0 l/m 2 min 0 min 303 W/m 6,4 km/h (2 Bft) 97,83 %
10.04.2020 18:08 21,4 C 22,8 C 17,8 C 49 % 1024,4 hPa 0,0 l/m 4 min 0 min 316 W/m 12,9 km/h (3 Bft) 97,87 %
10.04.2020 18:10 21,3 C 22,8 C 17,8 C 48 % 1024,4 hPa 0,0 l/m 2 min 0 min 342 W/m 16,1 km/h (3 Bft) 95,74 %
10.04.2020 18:12 21,2 C 22,8 C 17,8 C 49 % 1024,3 hPa 0,0 l/m 2 min 0 min 339 W/m 12,9 km/h (3 Bft) 97,87 %
10.04.2020 18:14 21,1 C 22,2 C 17,8 C 49 % 1024,4 hPa 0,0 l/m 2 min 0 min 336 W/m 16,1 km/h (3 Bft) 97,87 %
10.04.2020 18:16 21,1 C 22,2 C 17,8 C 49 % 1024,3 hPa 0,0 l/m 2 min 0 min 321 W/m 12,9 km/h (3 Bft) 97,83 %
10.04.2020 18:18 20,9 C 21,7 C 17,8 C 49 % 1024,3 hPa 0,0 l/m 2 min 0 min 302 W/m 16,1 km/h (3 Bft) 95,74 %
10.04.2020 18:20 20,8 C 20,6 C 17,8 C 49 % 1024,3 hPa 0,0 l/m 2 min 0 min 306 W/m 9,7 km/h (2 Bft) 100,00 %
10.04.2020 18:22 20,7 C 20,0 C 17,8 C 49 % 1024,3 hPa 0,0 l/m 2 min 0 min 301 W/m 12,9 km/h (3 Bft) 100,00 %
10.04.2020 18:24 20,6 C 19,4 C 17,8 C 49 % 1024,3 hPa 0,0 l/m 2 min 0 min 252 W/m 9,7 km/h (2 Bft) 100,00 %
10.04.2020 18:26 20,5 C 18,9 C 17,2 C 49 % 1024,3 hPa 0,0 l/m 0 min 0 min 115 W/m 12,9 km/h (3 Bft) 100,00 %
10.04.2020 18:28 20,4 C 18,9 C 17,2 C 50 % 1024,3 hPa 0,0 l/m 0 min 0 min 65 W/m 12,9 km/h (3 Bft) 97,83 %
10.04.2020 18:30 20,3 C 18,9 C 17,2 C 50 % 1024,3 hPa 0,0 l/m 0 min 0 min 59 W/m 9,7 km/h (2 Bft) 100,00 %
10.04.2020 18:32 20,2 C 18,3 C 17,2 C 51 % 1024,3 hPa 0,0 l/m 0 min 0 min 55 W/m 16,1 km/h (3 Bft) 100,00 %
10.04.2020 18:34 20,1 C 18,3 C 17,2 C 50 % 1024,4 hPa 0,0 l/m 0 min 0 min 53 W/m 12,9 km/h (3 Bft) 100,00 %
10.04.2020 18:36 19,9 C 18,3 C 17,2 C 51 % 1024,3 hPa 0,0 l/m 0 min 0 min 52 W/m 6,4 km/h (2 Bft) 100,00 %
10.04.2020 18:38 19,8 C 18,3 C 17,2 C 51 % 1024,3 hPa 0,0 l/m 0 min 0 min 50 W/m 22,5 km/h (4 Bft) 100,00 %
10.04.2020 18:40 19,7 C 18,3 C 17,2 C 50 % 1024,3 hPa 0,0 l/m 0 min 0 min 48 W/m 19,3 km/h (3 Bft) 100,00 %
10.04.2020 18:42 19,6 C 18,3 C 17,2 C 51 % 1024,3 hPa 0,0 l/m 0 min 0 min 46 W/m 12,9 km/h (3 Bft) 100,00 %
10.04.2020 18:44 19,5 C 17,8 C 17,2 C 51 % 1024,3 hPa 0,0 l/m 0 min 0 min 46 W/m 12,9 km/h (3 Bft) 97,87 %
10.04.2020 18:46 19,4 C 17,8 C 16,7 C 51 % 1024,3 hPa 0,0 l/m 0 min 0 min 44 W/m 9,7 km/h (2 Bft) 97,87 %
10.04.2020 18:48 19,3 C 17,8 C 16,7 C 51 % 1024,3 hPa 0,0 l/m 0 min 0 min 42 W/m 12,9 km/h (3 Bft) 97,87 %
10.04.2020 18:50 19,2 C 17,8 C 16,7 C 52 % 1024,3 hPa 0,0 l/m 0 min 0 min 40 W/m 6,4 km/h (2 Bft) 97,83 %
10.04.2020 18:52 19,2 C 17,8 C 16,7 C 52 % 1024,4 hPa 0,0 l/m 0 min 0 min 40 W/m 12,9 km/h (3 Bft) 97,87 %
10.04.2020 18:54 19,1 C 17,8 C 16,7 C 51 % 1024,3 hPa 0,0 l/m 0 min 0 min 40 W/m 12,9 km/h (3 Bft) 95,74 %
10.04.2020 18:56 19,0 C 17,8 C 16,7 C 51 % 1024,4 hPa 0,0 l/m 0 min 0 min 40 W/m 9,7 km/h (2 Bft) 97,87 %
10.04.2020 18:58 18,9 C 17,8 C 16,7 C 51 % 1024,4 hPa 0,0 l/m 0 min 0 min 39 W/m 22,5 km/h (4 Bft) 97,87 %
10.04.2020 19:00 18,9 C 17,2 C 16,7 C 51 % 1024,4 hPa 0,0 l/m 0 min 0 min 39 W/m 16,1 km/h (3 Bft) 97,87 %
10.04.2020 19:02 18,8 C 17,2 C 16,1 C 52 % 1024,4 hPa 0,0 l/m 0 min 0 min 37 W/m 6,4 km/h (2 Bft) 97,87 %
10.04.2020 19:04 18,8 C 17,2 C 16,1 C 52 % 1024,4 hPa 0,0 l/m 0 min 0 min 37 W/m 6,4 km/h (2 Bft) 95,65 %
10.04.2020 19:06 18,7 C 17,2 C 16,1 C 52 % 1024,4 hPa 0,0 l/m 0 min 0 min 37 W/m 12,9 km/h (3 Bft) 97,87 %
10.04.2020 19:08 18,7 C 17,2 C 16,1 C 52 % 1024,4 hPa 0,0 l/m 0 min 0 min 35 W/m 12,9 km/h (3 Bft) 97,87 %
10.04.2020 19:10 18,6 C 17,2 C 16,1 C 52 % 1024,4 hPa 0,0 l/m 0 min 0 min 35 W/m 6,4 km/h (2 Bft) 95,74 %
10.04.2020 19:12 18,6 C 17,2 C 16,1 C 52 % 1024,5 hPa 0,0 l/m 0 min 0 min 34 W/m 3,2 km/h (1 Bft) 97,87 %
10.04.2020 19:14 18,4 C 17,2 C 16,1 C 52 % 1024,5 hPa 0,0 l/m 0 min 0 min 33 W/m 6,4 km/h (2 Bft) 97,83 %
10.04.2020 19:16 18,4 C 16,7 C 16,1 C 52 % 1024,4 hPa 0,0 l/m 0 min 0 min 33 W/m 6,4 km/h (2 Bft) 95,74 %
10.04.2020 19:18 18,3 C 16,7 C 16,1 C 51 % 1024,4 hPa 0,0 l/m 0 min 0 min 32 W/m 16,1 km/h (3 Bft) 93,62 %
10.04.2020 19:20 18,3 C 16,7 C 16,1 C 52 % 1024,4 hPa 0,0 l/m 0 min 0 min 32 W/m 9,7 km/h (2 Bft) 97,87 %
10.04.2020 19:22 18,2 C 16,7 C 16,1 C 52 % 1024,4 hPa 0,0 l/m 0 min 0 min 32 W/m 6,4 km/h (2 Bft) 95,74 %
10.04.2020 19:24 18,2 C 16,7 C 15,6 C 52 % 1024,4 hPa 0,0 l/m 0 min 0 min 30 W/m 9,7 km/h (2 Bft) 97,87 %
10.04.2020 19:26 18,1 C 16,7 C 15,6 C 52 % 1024,4 hPa 0,0 l/m 0 min 0 min 28 W/m 9,7 km/h (2 Bft) 95,65 %
10.04.2020 19:28 18,1 C 16,7 C 15,6 C 52 % 1024,5 hPa 0,0 l/m 0 min 0 min 27 W/m 6,4 km/h (2 Bft) 95,74 %
10.04.2020 19:30 18,1 C 16,7 C 15,6 C 52 % 1024,4 hPa 0,0 l/m 0 min 0 min 26 W/m 6,4 km/h (2 Bft) 95,74 %
10.04.2020 19:32 18,0 C 16,7 C 15,6 C 52 % 1024,5 hPa 0,0 l/m 0 min 0 min 25 W/m 6,4 km/h (2 Bft) 95,74 %
10.04.2020 19:34 17,9 C 16,7 C 15,6 C 52 % 1024,5 hPa 0,0 l/m 0 min 0 min 25 W/m 6,4 km/h (2 Bft) 95,74 %
10.04.2020 19:36 17,9 C 16,1 C 15,6 C 52 % 1024,5 hPa 0,0 l/m 0 min 0 min 25 W/m 3,2 km/h (1 Bft) 97,87 %
10.04.2020 19:38 17,8 C 16,1 C 15,0 C 52 % 1024,5 hPa 0,0 l/m 0 min 0 min 23 W/m 3,2 km/h (1 Bft) 93,48 %
10.04.2020 19:40 17,8 C 16,1 C 15,0 C 52 % 1024,6 hPa 0,0 l/m 0 min 0 min 23 W/m 3,2 km/h (1 Bft) 95,74 %
10.04.2020 19:42 17,7 C 16,1 C 15,0 C 52 % 1024,5 hPa 0,0 l/m 0 min 0 min 21 W/m 6,4 km/h (2 Bft) 95,74 %
10.04.2020 19:44 17,7 C 16,1 C 15,0 C 52 % 1024,6 hPa 0,0 l/m 0 min 0 min 21 W/m 12,9 km/h (3 Bft) 97,87 %
10.04.2020 19:46 17,6 C 16,1 C 15,0 C 52 % 1024,6 hPa 0,0 l/m 0 min 0 min 20 W/m 9,7 km/h (2 Bft) 97,87 %
10.04.2020 19:48 17,5 C 16,1 C 15,0 C 52 % 1024,5 hPa 0,0 l/m 0 min 0 min 19 W/m 6,4 km/h (2 Bft) 95,74 %
10.04.2020 19:50 17,4 C 15,6 C 15,0 C 52 % 1024,6 hPa 0,0 l/m 0 min 0 min 18 W/m 6,4 km/h (2 Bft) 97,83 %
10.04.2020 19:52 17,4 C 15,6 C 15,0 C 52 % 1024,5 hPa 0,0 l/m 0 min 0 min 18 W/m 3,2 km/h (1 Bft) 95,74 %
10.04.2020 19:54 17,3 C 15,6 C 15,0 C 52 % 1024,6 hPa 0,0 l/m 0 min 0 min 16 W/m 3,2 km/h (1 Bft) 97,87 %
10.04.2020 19:56 17,3 C 15,6 C 15,0 C 52 % 1024,6 hPa 0,0 l/m 0 min 0 min 16 W/m 6,4 km/h (2 Bft) 95,74 %
10.04.2020 19:58 17,2 C 15,6 C 14,4 C 52 % 1024,6 hPa 0,0 l/m 0 min 0 min 14 W/m 6,4 km/h (2 Bft) 97,87 %
10.04.2020 20:00 17,2 C 15,6 C 14,4 C 52 % 1024,6 hPa 0,0 l/m 0 min 0 min 14 W/m 3,2 km/h (1 Bft) 100,00 %
10.04.2020 20:02 17,1 C 15,6 C 14,4 C 52 % 1024,6 hPa 0,0 l/m 0 min 0 min 12 W/m 3,2 km/h (1 Bft) 97,87 %
10.04.2020 20:04 17,1 C 15,0 C 14,4 C 51 % 1024,6 hPa 0,0 l/m 0 min 0 min 12 W/m 3,2 km/h (1 Bft) 100,00 %
10.04.2020 20:06 16,9 C 15,0 C 14,4 C 51 % 1024,6 hPa 0,0 l/m 0 min 0 min 11 W/m 6,4 km/h (2 Bft) 97,87 %
10.04.2020 20:08 16,9 C 15,0 C 14,4 C 51 % 1024,5 hPa 0,0 l/m 0 min 0 min 11 W/m 6,4 km/h (2 Bft) 100,00 %
10.04.2020 20:09 16,8 C 15,0 C 14,4 C 51 % 1024,5 hPa 0,0 l/m 0 min 0 min 9 W/m 9,7 km/h (2 Bft) 100,00 %
10.04.2020 20:12 16,7 C 15,0 C 14,4 C 51 % 1024,6 hPa 0,0 l/m 0 min 0 min 9 W/m 16,1 km/h (3 Bft) 100,00 %
10.04.2020 20:14 16,7 C 15,0 C 13,9 C 51 % 1024,6 hPa 0,0 l/m 0 min 0 min 7 W/m 9,7 km/h (2 Bft) 100,00 %
10.04.2020 20:16 16,6 C 15,0 C 13,9 C 50 % 1024,5 hPa 0,0 l/m 0 min 0 min 7 W/m 12,9 km/h (3 Bft) 100,00 %
10.04.2020 20:18 16,6 C 15,0 C 13,9 C 50 % 1024,6 hPa 0,0 l/m 0 min 0 min 5 W/m 6,4 km/h (2 Bft) 100,00 %
10.04.2020 20:20 16,5 C 14,4 C 13,9 C 51 % 1024,6 hPa 0,0 l/m 0 min 0 min 5 W/m 3,2 km/h (1 Bft) 100,00 %
10.04.2020 20:22 16,4 C 14,4 C 13,9 C 50 % 1024,6 hPa 0,0 l/m 0 min 0 min 2 W/m 12,9 km/h (3 Bft) 100,00 %
10.04.2020 20:24 16,4 C 14,4 C 13,9 C 52 % 1024,7 hPa 0,0 l/m 0 min 0 min 0 W/m 3,2 km/h (1 Bft) 97,83 %
10.04.2020 20:26 16,3 C 14,4 C 13,3 C 52 % 1024,6 hPa 0,0 l/m 0 min 0 min 0 W/m 3,2 km/h (1 Bft) 100,00 %
10.04.2020 20:28 16,2 C 14,4 C 13,3 C 51 % 1024,7 hPa 0,0 l/m 0 min 0 min 0 W/m 6,4 km/h (2 Bft) 95,74 %
10.04.2020 20:30 16,2 C 13,9 C 13,3 C 51 % 1024,7 hPa 0,0 l/m 0 min 0 min 0 W/m 3,2 km/h (1 Bft) 97,87 %
10.04.2020 20:32 16,2 C 13,9 C 13,3 C 52 % 1024,8 hPa 0,0 l/m 0 min 0 min 0 W/m 0,0 km/h (0 Bft) 95,74 %
10.04.2020 20:34 16,1 C 13,9 C 12,8 C 51 % 1024,8 hPa 0,0 l/m 0 min 0 min 0 W/m 6,4 km/h (2 Bft) 97,87 %
10.04.2020 20:36 16,1 C 13,9 C 12,8 C 51 % 1024,9 hPa 0,0 l/m 0 min 0 min 0 W/m 3,2 km/h (1 Bft) 93,48 %
10.04.2020 20:38 16,0 C 13,9 C 12,8 C 51 % 1024,9 hPa 0,0 l/m 0 min 0 min 0 W/m 6,4 km/h (2 Bft) 97,87 %
10.04.2020 20:40 15,9 C 13,9 C 12,8 C 51 % 1024,9 hPa 0,0 l/m 0 min 0 min 0 W/m 3,2 km/h (1 Bft) 95,74 %
10.04.2020 20:42 15,8 C 13,9 C 12,8 C 51 % 1024,9 hPa 0,0 l/m 0 min 0 min 0 W/m 6,4 km/h (2 Bft) 97,87 %
10.04.2020 20:44 15,8 C 13,3 C 12,8 C 51 % 1024,9 hPa 0,0 l/m 0 min 0 min 0 W/m 3,2 km/h (1 Bft) 97,87 %
10.04.2020 20:46 15,7 C 13,3 C 12,2 C 51 % 1024,8 hPa 0,0 l/m 0 min 0 min 0 W/m 0,0 km/h (0 Bft) 97,87 %
10.04.2020 20:48 15,7 C 13,3 C 12,2 C 52 % 1024,9 hPa 0,0 l/m 0 min 0 min 0 W/m 3,2 km/h (1 Bft) 95,65 %
10.04.2020 20:50 15,6 C 13,3 C 12,2 C 52 % 1024,9 hPa 0,0 l/m 0 min 0 min 0 W/m 0,0 km/h (0 Bft) 97,87 %
10.04.2020 20:52 15,6 C 13,3 C 12,2 C 52 % 1025,0 hPa 0,0 l/m 0 min 0 min 0 W/m 0,0 km/h (0 Bft) 97,87 %
10.04.2020 20:54 15,5 C 13,3 C 12,2 C 52 % 1025,0 hPa 0,0 l/m 0 min 0 min 0 W/m 0,0 km/h (0 Bft) 95,74 %
10.04.2020 20:56 15,4 C 13,3 C 12,2 C 52 % 1025,0 hPa 0,0 l/m 0 min 0 min 0 W/m 0,0 km/h (0 Bft) 97,87 %
10.04.2020 20:58 15,3 C 13,3 C 12,2 C 52 % 1025,0 hPa 0,0 l/m 0 min 0 min 0 W/m 3,2 km/h (1 Bft) 97,83 %
10.04.2020 21:00 15,3 C 12,8 C 12,2 C 52 % 1025,0 hPa 0,0 l/m 0 min 0 min 0 W/m 0,0 km/h (0 Bft) 95,74 %
10.04.2020 21:02 15,2 C 12,8 C 12,2 C 52 % 1025,0 hPa 0,0 l/m 0 min 0 min 0 W/m 3,2 km/h (1 Bft) 97,87 %
10.04.2020 21:04 15,2 C 13,3 C 12,2 C 52 % 1025,0 hPa 0,0 l/m 0 min 0 min 0 W/m 3,2 km/h (1 Bft) 97,87 %
10.04.2020 21:06 15,1 C 12,8 C 12,2 C 53 % 1025,0 hPa 0,0 l/m 0 min 0 min 0 W/m 3,2 km/h (1 Bft) 95,74 %
10.04.2020 21:08 15,1 C 12,8 C 12,2 C 53 % 1025,0 hPa 0,0 l/m 0 min 0 min 0 W/m 3,2 km/h (1 Bft) 97,87 %
10.04.2020 21:10 14,9 C 12,8 C 12,2 C 53 % 1025,1 hPa 0,0 l/m 0 min 0 min 0 W/m 0,0 km/h (0 Bft) 97,83 %
10.04.2020 21:12 14,9 C 12,8 C 11,7 C 53 % 1025,1 hPa 0,0 l/m 0 min 0 min 0 W/m 0,0 km/h (0 Bft) 95,74 %
10.04.2020 21:14 14,8 C 12,8 C 11,7 C 53 % 1025,1 hPa 0,0 l/m 0 min 0 min 0 W/m 3,2 km/h (1 Bft) 97,87 %
10.04.2020 21:16 14,8 C 12,8 C 11,7 C 53 % 1025,1 hPa 0,0 l/m 0 min 0 min 0 W/m 0,0 km/h (0 Bft) 95,74 %
10.04.2020 21:18 14,7 C 12,8 C 11,7 C 53 % 1025,1 hPa 0,0 l/m 0 min 0 min 0 W/m 3,2 km/h (1 Bft) 97,87 %
10.04.2020 21:20 14,7 C 12,8 C 11,7 C 54 % 1025,1 hPa 0,0 l/m 0 min 0 min 0 W/m 6,4 km/h (2 Bft) 100,00 %
10.04.2020 21:22 14,6 C 12,8 C 11,7 C 54 % 1025,1 hPa 0,0 l/m 0 min 0 min 0 W/m 3,2 km/h (1 Bft) 97,83 %
10.04.2020 21:24 14,6 C 12,8 C 11,7 C 54 % 1025,2 hPa 0,0 l/m 0 min 0 min 0 W/m 3,2 km/h (1 Bft) 100,00 %
10.04.2020 21:26 14,6 C 12,8 C 11,7 C 54 % 1025,1 hPa 0,0 l/m 0 min 0 min 0 W/m 3,2 km/h (1 Bft) 97,87 %
10.04.2020 21:28 14,4 C 12,8 C 11,7 C 54 % 1025,1 hPa 0,0 l/m 0 min 0 min 0 W/m 0,0 km/h (0 Bft) 97,87 %
10.04.2020 21:30 14,4 C 12,2 C 11,7 C 55 % 1025,2 hPa 0,0 l/m 0 min 0 min 0 W/m 3,2 km/h (1 Bft) 97,87 %
10.04.2020 21:32 14,3 C 12,2 C 11,7 C 55 % 1025,1 hPa 0,0 l/m 0 min 0 min 0 W/m 0,0 km/h (0 Bft) 97,87 %
10.04.2020 21:34 14,3 C 12,2 C 11,7 C 55 % 1025,1 hPa 0,0 l/m 0 min 0 min 0 W/m 6,4 km/h (2 Bft) 97,83 %
10.04.2020 21:36 14,3 C 12,2 C 11,7 C 55 % 1025,2 hPa 0,0 l/m 0 min 0 min 0 W/m 0,0 km/h (0 Bft) 97,87 %
10.04.2020 21:38 14,3 C 12,2 C 11,1 C 55 % 1025,2 hPa 0,0 l/m 0 min 0 min 0 W/m 3,2 km/h (1 Bft) 97,87 %
10.04.2020 21:40 14,3 C 12,2 C 11,1 C 55 % 1025,2 hPa 0,0 l/m 0 min 0 min 0 W/m 3,2 km/h (1 Bft) 95,74 %
10.04.2020 21:42 14,2 C 12,2 C 11,1 C 55 % 1025,2 hPa 0,0 l/m 0 min 0 min 0 W/m 0,0 km/h (0 Bft) 95,74 %
10.04.2020 21:44 14,1 C 12,2 C 11,1 C 56 % 1025,3 hPa 0,0 l/m 0 min 0 min 0 W/m 0,0 km/h (0 Bft) 97,87 %
10.04.2020 21:46 14,0 C 12,2 C 11,1 C 55 % 1025,3 hPa 0,0 l/m 0 min 0 min 0 W/m 6,4 km/h (2 Bft) 97,83 %
10.04.2020 21:48 13,9 C 12,2 C 11,1 C 55 % 1025,3 hPa 0,0 l/m 0 min 0 min 0 W/m 6,4 km/h (2 Bft) 97,87 %
10.04.2020 21:50 13,9 C 12,2 C 11,1 C 55 % 1025,3 hPa 0,0 l/m 0 min 0 min 0 W/m 3,2 km/h (1 Bft) 97,87 %
10.04.2020 21:52 13,8 C 12,2 C 11,1 C 55 % 1025,3 hPa 0,0 l/m 0 min 0 min 0 W/m 0,0 km/h (0 Bft) 97,87 %
10.04.2020 21:54 13,8 C 12,2 C 11,1 C 55 % 1025,3 hPa 0,0 l/m 0 min 0 min 0 W/m 0,0 km/h (0 Bft) 97,87 %
10.04.2020 21:56 13,7 C 12,2 C 11,1 C 55 % 1025,3 hPa 0,0 l/m 0 min 0 min 0 W/m 0,0 km/h (0 Bft) 97,87 %
10.04.2020 21:58 13,7 C 12,2 C 11,1 C 55 % 1025,3 hPa 0,0 l/m 0 min 0 min 0 W/m 6,4 km/h (2 Bft) 95,65 %
10.04.2020 22:00 13,6 C 12,2 C 11,1 C 55 % 1025,3 hPa 0,0 l/m 0 min 0 min 0 W/m 3,2 km/h (1 Bft) 97,87 %
10.04.2020 22:02 13,6 C 12,2 C 11,1 C 56 % 1025,3 hPa 0,0 l/m 0 min 0 min 0 W/m 0,0 km/h (0 Bft) 95,74 %
10.04.2020 22:04 13,6 C 11,7 C 11,1 C 56 % 1025,4 hPa 0,0 l/m 0 min 0 min 0 W/m 0,0 km/h (0 Bft) 100,00 %
10.04.2020 22:06 13,6 C 11,7 C 10,6 C 56 % 1025,4 hPa 0,0 l/m 0 min 0 min 0 W/m 0,0 km/h (0 Bft) 100,00 %
10.04.2020 22:08 13,5 C 11,7 C 10,6 C 56 % 1025,4 hPa 0,0 l/m 0 min 0 min 0 W/m 0,0 km/h (0 Bft) 100,00 %
10.04.2020 22:10 13,4 C 11,7 C 10,6 C 56 % 1025,3 hPa 0,0 l/m 0 min 0 min 0 W/m 3,2 km/h (1 Bft) 100,00 %
10.04.2020 22:12 13,4 C 11,7 C 10,6 C 56 % 1025,4 hPa 0,0 l/m 0 min 0 min 0 W/m 6,4 km/h (2 Bft) 97,87 %
10.04.2020 22:14 13,3 C 11,7 C 10,6 C 56 % 1025,4 hPa 0,0 l/m 0 min 0 min 0 W/m 6,4 km/h (2 Bft) 97,87 %
10.04.2020 22:16 13,3 C 11,7 C 11,1 C 56 % 1025,4 hPa 0,0 l/m 0 min 0 min 0 W/m 3,2 km/h (1 Bft) 100,00 %
10.04.2020 22:18 13,2 C 11,7 C 11,1 C 56 % 1025,5 hPa 0,0 l/m 0 min 0 min 0 W/m 9,7 km/h (2 Bft) 100,00 %
10.04.2020 22:20 13,2 C 11,7 C 11,1 C 56 % 1025,5 hPa 0,0 l/m 0 min 0 min 0 W/m 3,2 km/h (1 Bft) 100,00 %
10.04.2020 22:22 13,2 C 11,7 C 11,1 C 56 % 1025,5 hPa 0,0 l/m 0 min 0 min 0 W/m 6,4 km/h (2 Bft) 100,00 %
10.04.2020 22:24 13,1 C 11,7 C 10,6 C 56 % 1025,5 hPa 0,0 l/m 0 min 0 min 0 W/m 0,0 km/h (0 Bft) 97,87 %
10.04.2020 22:26 13,1 C 11,7 C 10,6 C 56 % 1025,5 hPa 0,0 l/m 0 min 0 min 0 W/m 6,4 km/h (2 Bft) 100,00 %
10.04.2020 22:28 13,1 C 11,7 C 10,6 C 56 % 1025,6 hPa 0,0 l/m 0 min 0 min 0 W/m 0,0 km/h (0 Bft) 100,00 %
10.04.2020 22:30 13,0 C 11,7 C 10,6 C 56 % 1025,6 hPa 0,0 l/m 0 min 0 min 0 W/m 0,0 km/h (0 Bft) 100,00 %
10.04.2020 22:32 13,0 C 11,7 C 10,6 C 57 % 1025,6 hPa 0,0 l/m 0 min 0 min 0 W/m 0,0 km/h (0 Bft) 100,00 %
10.04.2020 22:34 12,9 C 11,7 C 10,6 C 57 % 1025,6 hPa 0,0 l/m 0 min 0 min 0 W/m 0,0 km/h (0 Bft) 100,00 %
10.04.2020 22:36 12,9 C 11,1 C 10,6 C 57 % 1025,6 hPa 0,0 l/m 0 min 0 min 0 W/m 0,0 km/h (0 Bft) 100,00 %
10.04.2020 22:38 12,9 C 11,1 C 10,6 C 57 % 1025,6 hPa 0,0 l/m 0 min 0 min 0 W/m 0,0 km/h (0 Bft) 100,00 %
10.04.2020 22:40 12,9 C 11,1 C 10,6 C 57 % 1025,6 hPa 0,0 l/m 0 min 0 min 0 W/m 0,0 km/h (0 Bft) 97,87 %
10.04.2020 22:42 12,8 C 11,1 C 10,6 C 57 % 1025,7 hPa 0,0 l/m 0 min 0 min 0 W/m 6,4 km/h (2 Bft) 97,87 %
10.04.2020 22:44 12,8 C 11,1 C 10,0 C 57 % 1025,7 hPa 0,0 l/m 0 min 0 min 0 W/m 6,4 km/h (2 Bft) 97,83 %
10.04.2020 22:46 12,8 C 11,1 C 10,0 C 57 % 1025,7 hPa 0,0 l/m 0 min 0 min 0 W/m 0,0 km/h (0 Bft) 95,74 %
10.04.2020 22:48 12,7 C 11,1 C 10,0 C 57 % 1025,7 hPa 0,0 l/m 0 min 0 min 0 W/m 0,0 km/h (0 Bft) 97,87 %
10.04.2020 22:50 12,7 C 11,1 C 10,0 C 57 % 1025,7 hPa 0,0 l/m 0 min 0 min 0 W/m 0,0 km/h (0 Bft) 97,87 %
10.04.2020 22:52 12,7 C 11,1 C 10,0 C 57 % 1025,7 hPa 0,0 l/m 0 min 0 min 0 W/m 0,0 km/h (0 Bft) 97,87 %
10.04.2020 22:54 12,6 C 11,1 C 10,0 C 57 % 1025,7 hPa 0,0 l/m 0 min 0 min 0 W/m 3,2 km/h (1 Bft) 95,74 %
10.04.2020 22:56 12,6 C 11,1 C 10,0 C 58 % 1025,7 hPa 0,0 l/m 0 min 0 min 0 W/m 0,0 km/h (0 Bft) 97,83 %
10.04.2020 22:58 12,6 C 11,1 C 10,0 C 58 % 1025,7 hPa 0,0 l/m 0 min 0 min 0 W/m 0,0 km/h (0 Bft) 97,87 %
10.04.2020 23:00 12,5 C 10,6 C 10,0 C 57 % 1025,7 hPa 0,0 l/m 0 min 0 min 0 W/m 0,0 km/h (0 Bft) 97,87 %
10.04.2020 23:02 12,5 C 10,6 C 10,0 C 57 % 1025,7 hPa 0,0 l/m 0 min 0 min 0 W/m 0,0 km/h (0 Bft) 97,87 %
10.04.2020 23:04 12,4 C 10,6 C 10,0 C 57 % 1025,7 hPa 0,0 l/m 0 min 0 min 0 W/m 6,4 km/h (2 Bft) 97,87 %
10.04.2020 23:06 12,4 C 10,6 C 10,0 C 57 % 1025,7 hPa 0,0 l/m 0 min 0 min 0 W/m 3,2 km/h (1 Bft) 97,83 %
10.04.2020 23:08 12,3 C 10,6 C 9,4 C 58 % 1025,7 hPa 0,0 l/m 0 min 0 min 0 W/m 0,0 km/h (0 Bft) 93,62 %
10.04.2020 23:10 12,3 C 10,6 C 9,4 C 57 % 1025,8 hPa 0,0 l/m 0 min 0 min 0 W/m 3,2 km/h (1 Bft) 95,74 %
10.04.2020 23:12 12,3 C 10,6 C 9,4 C 58 % 1025,7 hPa 0,0 l/m 0 min 0 min 0 W/m 0,0 km/h (0 Bft) 97,87 %
10.04.2020 23:14 12,2 C 10,6 C 9,4 C 57 % 1025,8 hPa 0,0 l/m 0 min 0 min 0 W/m 0,0 km/h (0 Bft) 97,87 %
10.04.2020 23:16 12,2 C 10,6 C 9,4 C 57 % 1025,8 hPa 0,0 l/m 0 min 0 min 0 W/m 0,0 km/h (0 Bft) 93,62 %
10.04.2020 23:18 12,1 C 10,6 C 9,4 C 57 % 1025,8 hPa 0,0 l/m 0 min 0 min 0 W/m 0,0 km/h (0 Bft) 95,65 %
10.04.2020 23:20 12,1 C 10,6 C 9,4 C 58 % 1025,8 hPa 0,0 l/m 0 min 0 min 0 W/m 3,2 km/h (1 Bft) 97,87 %
10.04.2020 23:22 12,1 C 10,6 C 9,4 C 58 % 1025,8 hPa 0,0 l/m 0 min 0 min 0 W/m 9,7 km/h (2 Bft) 97,87 %
10.04.2020 23:24 12,0 C 10,0 C 9,4 C 58 % 1025,8 hPa 0,0 l/m 0 min 0 min 0 W/m 3,2 km/h (1 Bft) 95,74 %
10.04.2020 23:26 11,9 C 10,0 C 9,4 C 57 % 1025,8 hPa 0,0 l/m 0 min 0 min 0 W/m 0,0 km/h (0 Bft) 95,74 %
10.04.2020 23:28 11,9 C 10,0 C 9,4 C 57 % 1025,8 hPa 0,0 l/m 0 min 0 min 0 W/m 3,2 km/h (1 Bft) 93,62 %
10.04.2020 23:30 11,8 C 10,0 C 9,4 C 57 % 1025,8 hPa 0,0 l/m 0 min 0 min 0 W/m 0,0 km/h (0 Bft) 95,65 %
10.04.2020 23:32 11,8 C 10,0 C 9,4 C 57 % 1025,9 hPa 0,0 l/m 0 min 0 min 0 W/m 0,0 km/h (0 Bft) 93,62 %
10.04.2020 23:34 11,8 C 10,0 C 8,9 C 57 % 1025,8 hPa 0,0 l/m 0 min 0 min 0 W/m 0,0 km/h (0 Bft) 95,74 %
10.04.2020 23:36 11,7 C 10,0 C 8,9 C 57 % 1025,8 hPa 0,0 l/m 0 min 0 min 0 W/m 0,0 km/h (0 Bft) 91,49 %
10.04.2020 23:38 11,7 C 9,4 C 8,9 C 57 % 1025,8 hPa 0,0 l/m 0 min 0 min 0 W/m 0,0 km/h (0 Bft) 95,74 %
10.04.2020 23:40 11,6 C 9,4 C 8,9 C 57 % 1025,8 hPa 0,0 l/m 0 min 0 min 0 W/m 0,0 km/h (0 Bft) 93,62 %
10.04.2020 23:42 11,6 C 9,4 C 8,9 C 57 % 1025,8 hPa 0,0 l/m 0 min 0 min 0 W/m 0,0 km/h (0 Bft) 93,48 %
10.04.2020 23:44 11,6 C 9,4 C 8,3 C 57 % 1025,8 hPa 0,0 l/m 0 min 0 min 0 W/m 0,0 km/h (0 Bft) 93,62 %
10.04.2020 23:46 11,5 C 9,4 C 8,3 C 58 % 1025,8 hPa 0,0 l/m 0 min 0 min 0 W/m 0,0 km/h (0 Bft) 93,62 %
10.04.2020 23:48 11,4 C 9,4 C 8,3 C 57 % 1025,8 hPa 0,0 l/m 0 min 0 min 0 W/m 0,0 km/h (0 Bft) 93,62 %
10.04.2020 23:50 11,4 C 9,4 C 8,3 C 57 % 1025,8 hPa 0,0 l/m 0 min 0 min 0 W/m 0,0 km/h (0 Bft) 93,62 %
10.04.2020 23:52 11,3 C 9,4 C 8,3 C 57 % 1025,8 hPa 0,0 l/m 0 min 0 min 0 W/m 0,0 km/h (0 Bft) 95,74 %
10.04.2020 23:54 11,3 C 9,4 C 8,3 C 57 % 1025,8 hPa 0,0 l/m 0 min 0 min 0 W/m 0,0 km/h (0 Bft) 93,48 %
10.04.2020 23:56 11,2 C 9,4 C 8,3 C 57 % 1025,8 hPa 0,0 l/m 0 min 0 min 0 W/m 0,0 km/h (0 Bft) 93,62 %
10.04.2020 23:58 11,2 C 9,4 C 8,3 C 57 % 1025,8 hPa 0,0 l/m 0 min 0 min 0 W/m 0,0 km/h (0 Bft) 95,74 %
_ Min-Zeit 07:34 06:18 06:34 16:42 18:12 - - - - 00:02 00:58
Minimum _ 7,7 C 6,7 C 5,6 C 45 % 1024,3 hPa - - - - 0,0 km/h (0 Bft) 52,38 %
_ Max-Zeit 16:32 14:04 14:02 08:14 10:04 00:00 12:08 00:00 13:04 16:04 00:16
Maximum _ 22,9 C 28,9 C 31,1 C 91 % 1027,2 hPa 0,0 l/m 4 min 0 min 822 W/m 32,2 km/h
W-NW (5 Bft)
100,00 %
Durchschnitt _ 15,2 C 16,3 C 14,2 C 66 % 1026,0 hPa #0,0 l/m #9:22 h #0 min. 440 W/m 4,8 km/h (1 Bft) 97,57 %
© 2020 W. Hausmann